Observation data for Fort Chadbourne on 03/10/2018      Previous  Date  Next       Current Mesonet Observations  Soil Data  Daily Summary Page  Observations in Plain Language
KCH1 100600Z 11003KT 14/09 A298 RMK A01 T01440092  RH  071%=      5-min Rain = 0
KCH1 100601Z 11002KT 14/09 A298 RMK A01 T01420092  RH  072%=      5-min Rain = 0
KCH1 100602Z 08002KT 14/09 A298 RMK A01 T01400093  RH  073%=      5-min Rain = 0
KCH1 100603Z 07002KT 14/09 A298 RMK A01 T01390093  RH  073%=      5-min Rain = 0
KCH1 100604Z 06002KT 14/09 A298 RMK A01 T01390093  RH  074%=      5-min Rain = 0
KCH1 100605Z 07003KT 14/09 A298 RMK A01 T01380094  RH  075%=      5-min Rain = 0
KCH1 100606Z 07002KT 14/09 A298 RMK A01 T01380094  RH  075%=      5-min Rain = 0
KCH1 100607Z 07002KT 14/10 A298 RMK A01 T01380095  RH  075%=      5-min Rain = 0
KCH1 100608Z 08002KT 14/10 A298 RMK A01 T01370095  RH  076%=      5-min Rain = 0
KCH1 100609Z 07003KT 14/10 A298 RMK A01 T01370096  RH  076%=      5-min Rain = 0
KCH1 100610Z 07003KT 14/10 A298 RMK A01 T01370096  RH  076%=      5-min Rain = 0
KCH1 100611Z 08003KT 14/10 A298 RMK A01 T01370096  RH  076%=      5-min Rain = 0
KCH1 100612Z 07002KT 14/10 A298 RMK A01 T01370096  RH  076%=      5-min Rain = 0
KCH1 100613Z 06003KT 14/10 A298 RMK A01 T01360096  RH  077%=      5-min Rain = 0
KCH1 100614Z 06003KT 14/10 A298 RMK A01 T01360097  RH  077%=      5-min Rain = 0
KCH1 100615Z 06002KT 14/10 A298 RMK A01 T01360095  RH  076%=      5-min Rain = 0
KCH1 100616Z 07002KT 13/09 A298 RMK A01 T01340094  RH  077%=      5-min Rain = 0
KCH1 100617Z 09002KT 13/10 A298 RMK A01 T01340096  RH  078%=      5-min Rain = 0
KCH1 100618Z 08002KT 13/10 A298 RMK A01 T01330097  RH  079%=      5-min Rain = 0
KCH1 100619Z 08002KT 13/10 A298 RMK A01 T01340100  RH  080%=      5-min Rain = 0
KCH1 100620Z 07002KT 13/10 A298 RMK A01 T01340099  RH  079%=      5-min Rain = 0
KCH1 100621Z 06001KT 13/10 A298 RMK A01 T01340099  RH  079%=      5-min Rain = 0
KCH1 100622Z 06002KT 13/10 A298 RMK A01 T01340100  RH  080%=      5-min Rain = 0
KCH1 100623Z 06001KT 13/10 A298 RMK A01 T01340099  RH  079%=      5-min Rain = 0
KCH1 100624Z 26001KT 13/10 A298 RMK A01 T01340100  RH  080%=      5-min Rain = 0
KCH1 100625Z 01001KT 13/10 A2981 RMK A01 T01320096  RH  079%=      5-min Rain = 0
KCH1 100626Z 35001KT 13/10 A2981 RMK A01 T01320100  RH  081%=      5-min Rain = 0
KCH1 100627Z 00001KT 13/10 A2981 RMK A01 T01330103  RH  082%=      5-min Rain = 0
KCH1 100628Z 00000KT 13/10 A2981 RMK A01 T01340102  RH  081%=      5-min Rain = 0
KCH1 100629Z 00000KT 13/10 A2981 RMK A01 T01340101  RH  080%=      5-min Rain = 0
KCH1 100630Z 18001KT 13/10 A2981 RMK A01 T01340102  RH  081%=      5-min Rain = 0
KCH1 100631Z 29001KT 13/10 A2981 RMK A01 T01340103  RH  081%=      5-min Rain = 0
KCH1 100632Z 25002KT 14/11 A2981 RMK A01 T01350105  RH  082%=      5-min Rain = 0
KCH1 100633Z 22002KT 14/11 A2981 RMK A01 T01380110  RH  083%=      5-min Rain = 0
KCH1 100634Z 21001KT 14/11 A2981 RMK A01 T01420112  RH  082%=      5-min Rain = 0
KCH1 100635Z 23002KT 14/11 A2981 RMK A01 T01430111  RH  081%=      5-min Rain = 0
KCH1 100636Z 25000KT 14/11 A2981 RMK A01 T01440110  RH  080%=      5-min Rain = 0
KCH1 100637Z 24001KT 14/11 A2981 RMK A01 T01440108  RH  079%=      5-min Rain = 0
KCH1 100638Z 23002KT 14/11 A2981 RMK A01 T01440110  RH  080%=      5-min Rain = 0
KCH1 100639Z 21003KT 15/12 A2981 RMK A01 T01460115  RH  082%=      5-min Rain = 0
KCH1 100640Z 21004KT 15/12 A2981 RMK A01 T01480115  RH  081%=      5-min Rain = 0
KCH1 100641Z 22003KT 15/12 A2981 RMK A01 T01500116  RH  080%=      5-min Rain = 0
KCH1 100642Z 19004KT 15/12 A2981 RMK A01 T01510116  RH  080%=      5-min Rain = 0
KCH1 100643Z 22003KT 15/12 A2981 RMK A01 T01520116  RH  079%=      5-min Rain = 0
KCH1 100644Z 22004KT 15/12 A2981 RMK A01 T01530118  RH  079%=      5-min Rain = 0
KCH1 100645Z 22004KT 16/12 A2981 RMK A01 T01550118  RH  079%=      5-min Rain = 0
KCH1 100646Z 23002KT 16/12 A2981 RMK A01 T01560118  RH  078%=      5-min Rain = 0
KCH1 100647Z 23004KT 16/12 A2981 RMK A01 T01560117  RH  078%=      5-min Rain = 0
KCH1 100648Z 23005KT 16/12 A2981 RMK A01 T01560118  RH  078%=      5-min Rain = 0
KCH1 100649Z 22003KT 16/12 A2981 RMK A01 T01570118  RH  078%=      5-min Rain = 0
KCH1 100650Z 24004KT 16/12 A2981 RMK A01 T01570118  RH  078%=      5-min Rain = 0
KCH1 100651Z 22004KT 16/12 A2982 RMK A01 T01570118  RH  077%=      5-min Rain = 0
KCH1 100652Z 22003KT 16/12 A2982 RMK A01 T01570118  RH  077%=      5-min Rain = 0
KCH1 100653Z 22003KT 16/12 A2982 RMK A01 T01570118  RH  077%=      5-min Rain = 0
KCH1 100654Z 22003KT 16/12 A2982 RMK A01 T01570119  RH  078%=      5-min Rain = 0
KCH1 100655Z 20003KT 16/12 A2982 RMK A01 T01570118  RH  078%=      5-min Rain = 0
KCH1 100656Z 22004KT 16/12 A2982 RMK A01 T01570118  RH  078%=      5-min Rain = 0
KCH1 100657Z 20005KT 16/12 A2982 RMK A01 T01570119  RH  078%=      5-min Rain = 0
KCH1 100658Z 21006KT 16/12 A2982 RMK A01 T01580120  RH  078%=      5-min Rain = 0
KCH1 100659Z 21006KT 16/12 A2982 RMK A01 T01580119  RH  078%=      5-min Rain = 0
KCH1 100700Z 21006KT 16/12 A2982 RMK A01 T01590120  RH  078%=      5-min Rain = 0
KCH1 100701Z 20005KT 16/12 A2982 RMK A01 T01590120  RH  077%=      5-min Rain = 0
KCH1 100702Z 21005KT 16/12 A2982 RMK A01 T01590120  RH  077%=      5-min Rain = 0
KCH1 100703Z 21005KT 16/12 A2982 RMK A01 T01580120  RH  078%=      5-min Rain = 0
KCH1 100704Z 21005KT 16/12 A2982 RMK A01 T01580120  RH  078%=      5-min Rain = 0
KCH1 100705Z 20006KT 16/12 A2981 RMK A01 T01580120  RH  078%=      5-min Rain = 0
KCH1 100706Z 20005KT 16/12 A2982 RMK A01 T01580120  RH  078%=      5-min Rain = 0
KCH1 100707Z 20007KT 16/12 A2982 RMK A01 T01580121  RH  079%=      5-min Rain = 0
KCH1 100708Z 20006KT 16/12 A2982 RMK A01 T01580121  RH  078%=      5-min Rain = 0
KCH1 100709Z 21007KT 16/12 A2982 RMK A01 T01580120  RH  079%=      5-min Rain = 0
KCH1 100710Z 21007KT 16/12 A2982 RMK A01 T01570121  RH  079%=      5-min Rain = 0
KCH1 100711Z 19006KT 16/12 A2982 RMK A01 T01570121  RH  079%=      5-min Rain = 0
KCH1 100712Z 20005KT 16/12 A2982 RMK A01 T01570121  RH  079%=      5-min Rain = 0
KCH1 100713Z 19005KT 16/12 A2982 RMK A01 T01570121  RH  079%=      5-min Rain = 0
KCH1 100714Z 19005KT 16/12 A2982 RMK A01 T01570121  RH  079%=      5-min Rain = 0
KCH1 100715Z 20005KT 16/12 A2982 RMK A01 T01560120  RH  079%=      5-min Rain = 0
KCH1 100716Z 19006KT 16/12 A2982 RMK A01 T01560121  RH  080%=      5-min Rain = 0
KCH1 100717Z 20006KT 16/12 A2982 RMK A01 T01550121  RH  080%=      5-min Rain = 0
KCH1 100718Z 20006KT 16/12 A2982 RMK A01 T01550121  RH  080%=      5-min Rain = 0
KCH1 100719Z 20006KT 16/12 A2982 RMK A01 T01560121  RH  080%=      5-min Rain = 0
KCH1 100720Z 20005KT 16/12 A2982 RMK A01 T01560122  RH  080%=      5-min Rain = 0
KCH1 100721Z 20004KT 16/12 A2982 RMK A01 T01560122  RH  080%=      5-min Rain = 0
KCH1 100722Z 19005KT 16/12 A2982 RMK A01 T01550121  RH  080%=      5-min Rain = 0
KCH1 100723Z 19004KT 16/12 A2982 RMK A01 T01550122  RH  080%=      5-min Rain = 0
KCH1 100724Z 20003KT 16/12 A2982 RMK A01 T01550122  RH  080%=      5-min Rain = 0
KCH1 100725Z 20003KT 16/12 A2982 RMK A01 T01550122  RH  080%=      5-min Rain = 0
KCH1 100726Z 21005KT 16/12 A2982 RMK A01 T01550122  RH  080%=      5-min Rain = 0
KCH1 100727Z 20003KT 16/12 A2982 RMK A01 T01550122  RH  081%=      5-min Rain = 0
KCH1 100728Z 22003KT 16/12 A2982 RMK A01 T01550122  RH  080%=      5-min Rain = 0
KCH1 100729Z 23001KT 16/12 A2982 RMK A01 T01550122  RH  080%=      5-min Rain = 0
KCH1 100730Z 22002KT 15/12 A2982 RMK A01 T01540121  RH  081%=      5-min Rain = 0
KCH1 100731Z 22001KT 15/12 A2982 RMK A01 T01540121  RH  081%=      5-min Rain = 0
KCH1 100732Z 23002KT 15/12 A2982 RMK A01 T01540121  RH  081%=      5-min Rain = 0
KCH1 100733Z 23002KT 15/12 A2982 RMK A01 T01530122  RH  081%=      5-min Rain = 0
KCH1 100734Z 21002KT 15/12 A2982 RMK A01 T01540122  RH  081%=      5-min Rain = 0
KCH1 100735Z 22003KT 15/12 A2982 RMK A01 T01540122  RH  082%=      5-min Rain = 0
KCH1 100736Z 22002KT 15/12 A2982 RMK A01 T01530122  RH  082%=      5-min Rain = 0
KCH1 100737Z 22001KT 15/12 A2982 RMK A01 T01540122  RH  081%=      5-min Rain = 0
KCH1 100738Z 22001KT 15/12 A2982 RMK A01 T01530122  RH  081%=      5-min Rain = 0
KCH1 100739Z 22002KT 15/12 A2982 RMK A01 T01540122  RH  082%=      5-min Rain = 0
KCH1 100740Z 21002KT 15/12 A2982 RMK A01 T01530122  RH  082%=      5-min Rain = 0
KCH1 100741Z 21002KT 15/12 A2982 RMK A01 T01530122  RH  082%=      5-min Rain = 0
KCH1 100742Z 22003KT 15/12 A2982 RMK A01 T01530122  RH  082%=      5-min Rain = 0
KCH1 100743Z 22004KT 15/12 A2982 RMK A01 T01520122  RH  082%=      5-min Rain = 0
KCH1 100744Z 22003KT 15/12 A2982 RMK A01 T01530122  RH  082%=      5-min Rain = 0
KCH1 100745Z 22003KT 15/12 A2982 RMK A01 T01530122  RH  082%=      5-min Rain = 0
KCH1 100746Z 22004KT 15/12 A2982 RMK A01 T01520121  RH  082%=      5-min Rain = 0
KCH1 100747Z 22004KT 15/12 A2982 RMK A01 T01510121  RH  082%=      5-min Rain = 0
KCH1 100748Z 23004KT 15/12 A2982 RMK A01 T01510121  RH  082%=      5-min Rain = 0
KCH1 100749Z 23004KT 15/12 A2982 RMK A01 T01500121  RH  083%=      5-min Rain = 0
KCH1 100750Z 22004KT 15/12 A2982 RMK A01 T01500121  RH  083%=      5-min Rain = 0
KCH1 100751Z 23004KT 15/12 A2982 RMK A01 T01500121  RH  083%=      5-min Rain = 0
KCH1 100752Z 24004KT 15/12 A2983 RMK A01 T01500121  RH  083%=      5-min Rain = 0
KCH1 100753Z 22003KT 15/12 A2983 RMK A01 T01500121  RH  083%=      5-min Rain = 0
KCH1 100754Z 24003KT 15/12 A2983 RMK A01 T01500121  RH  083%=      5-min Rain = 0
KCH1 100755Z 24002KT 15/12 A2983 RMK A01 T01500121  RH  083%=      5-min Rain = 0
KCH1 100756Z 26001KT 15/12 A2983 RMK A01 T01500121  RH  083%=      5-min Rain = 0
KCH1 100757Z 28001KT 15/12 A2983 RMK A01 T01490120  RH  083%=      5-min Rain = 0
KCH1 100758Z 32001KT 15/12 A2983 RMK A01 T01470119  RH  083%=      5-min Rain = 0
KCH1 100759Z 30001KT 15/12 A2983 RMK A01 T01470119  RH  083%=      5-min Rain = 0
KCH1 100800Z 28001KT 15/12 A2983 RMK A01 T01460119  RH  084%=      5-min Rain = 0
KCH1 100801Z 24001KT 15/12 A2983 RMK A01 T01460119  RH  084%=      5-min Rain = 0
KCH1 100802Z 26001KT 15/12 A2983 RMK A01 T01450120  RH  085%=      5-min Rain = 0
KCH1 100803Z 23001KT 15/12 A2983 RMK A01 T01460120  RH  085%=      5-min Rain = 0
KCH1 100804Z 00000KT 15/12 A2983 RMK A01 T01460120  RH  084%=      5-min Rain = 0
KCH1 100805Z 24000KT 15/12 A2983 RMK A01 T01450118  RH  084%=      5-min Rain = 0
KCH1 100806Z 25001KT 14/12 A2983 RMK A01 T01430117  RH  084%=      5-min Rain = 0
KCH1 100807Z 25001KT 14/12 A2983 RMK A01 T01410116  RH  085%=      5-min Rain = 0
KCH1 100808Z 16000KT 14/11 A2983 RMK A01 T01400114  RH  085%=      5-min Rain = 0
KCH1 100809Z 19000KT 14/11 A2983 RMK A01 T01370112  RH  085%=      5-min Rain = 0
KCH1 100810Z 00000KT 14/11 A2983 RMK A01 T01360113  RH  086%=      5-min Rain = 0
KCH1 100811Z 00000KT 13/11 A2983 RMK A01 T01340112  RH  086%=      5-min Rain = 0
KCH1 100812Z 23001KT 13/11 A2983 RMK A01 T01330111  RH  087%=      5-min Rain = 0
KCH1 100813Z 21001KT 13/11 A2983 RMK A01 T01320111  RH  087%=      5-min Rain = 0
KCH1 100814Z 20001KT 13/11 A2983 RMK A01 T01320113  RH  088%=      5-min Rain = 0
KCH1 100815Z 21001KT 13/12 A2983 RMK A01 T01330115  RH  089%=      5-min Rain = 0
KCH1 100816Z 21001KT 13/11 A2983 RMK A01 T01330114  RH  088%=      5-min Rain = 0
KCH1 100817Z 19001KT 13/11 A2982 RMK A01 T01330114  RH  088%=      5-min Rain = 0
KCH1 100818Z 19002KT 13/11 A2982 RMK A01 T01340114  RH  088%=      5-min Rain = 0
KCH1 100819Z 17001KT 13/11 A2982 RMK A01 T01330112  RH  087%=      5-min Rain = 0
KCH1 100820Z 18001KT 13/11 A2982 RMK A01 T01320112  RH  088%=      5-min Rain = 0
KCH1 100821Z 20002KT 13/11 A2982 RMK A01 T01310113  RH  089%=      5-min Rain = 0
KCH1 100822Z 20002KT 13/11 A2982 RMK A01 T01310114  RH  089%=      5-min Rain = 0
KCH1 100823Z 19002KT 13/11 A2982 RMK A01 T01310114  RH  089%=      5-min Rain = 0
KCH1 100824Z 19002KT 13/11 A2982 RMK A01 T01310114  RH  089%=      5-min Rain = 0
KCH1 100825Z 19002KT 13/11 A2982 RMK A01 T01310114  RH  090%=      5-min Rain = 0
KCH1 100826Z 20002KT 13/12 A2982 RMK A01 T01310115  RH  090%=      5-min Rain = 0
KCH1 100827Z 19002KT 13/12 A2982 RMK A01 T01310116  RH  090%=      5-min Rain = 0
KCH1 100828Z 18001KT 13/12 A2982 RMK A01 T01320116  RH  090%=      5-min Rain = 0
KCH1 100829Z 15001KT 13/12 A2982 RMK A01 T01320116  RH  090%=      5-min Rain = 0
KCH1 100830Z 13001KT 13/12 A2982 RMK A01 T01320115  RH  089%=      5-min Rain = 0
KCH1 100831Z 12001KT 13/11 A2982 RMK A01 T01300112  RH  089%=      5-min Rain = 0
KCH1 100832Z 12001KT 13/11 A2982 RMK A01 T01290111  RH  089%=      5-min Rain = 0
KCH1 100833Z 12001KT 13/11 A2982 RMK A01 T01270109  RH  089%=      5-min Rain = 0
KCH1 100834Z 12001KT 13/11 A2982 RMK A01 T01260108  RH  089%=      5-min Rain = 0
KCH1 100835Z 12000KT 13/11 A2982 RMK A01 T01250109  RH  090%=      5-min Rain = 0
KCH1 100836Z 00000KT 13/11 A2982 RMK A01 T01250109  RH  090%=      5-min Rain = 0
KCH1 100837Z 00000KT 12/11 A2982 RMK A01 T01240108  RH  090%=      5-min Rain = 0
KCH1 100838Z 00000KT 12/11 A2982 RMK A01 T01240107  RH  090%=      5-min Rain = 0
KCH1 100839Z 00000KT 12/11 A2982 RMK A01 T01230107  RH  090%=      5-min Rain = 0
KCH1 100840Z 00000KT 12/11 A2982 RMK A01 T01230108  RH  091%=      5-min Rain = 0
KCH1 100841Z 00000KT 12/11 A2982 RMK A01 T01230109  RH  091%=      5-min Rain = 0
KCH1 100842Z 12000KT 12/11 A2982 RMK A01 T01230109  RH  091%=      5-min Rain = 0
KCH1 100843Z 00000KT 12/11 A2982 RMK A01 T01230108  RH  091%=      5-min Rain = 0
KCH1 100844Z 00000KT 12/11 A2982 RMK A01 T01230108  RH  091%=      5-min Rain = 0
KCH1 100845Z 00000KT 12/11 A2982 RMK A01 T01220108  RH  091%=      5-min Rain = 0
KCH1 100846Z 05000KT 12/11 A2982 RMK A01 T01210106  RH  090%=      5-min Rain = 0
KCH1 100847Z 05000KT 12/11 A2982 RMK A01 T01210107  RH  091%=      5-min Rain = 0
KCH1 100848Z 02000KT 12/11 A2982 RMK A01 T01220109  RH  092%=      5-min Rain = 0
KCH1 100849Z 00000KT 12/11 A2982 RMK A01 T01240114  RH  093%=      5-min Rain = 0
KCH1 100850Z 00000KT 13/12 A2982 RMK A01 T01260115  RH  093%=      5-min Rain = 0
KCH1 100851Z 00000KT 13/12 A2982 RMK A01 T01270116  RH  093%=      5-min Rain = 0
KCH1 100852Z 00000KT 13/12 A2982 RMK A01 T01280116  RH  092%=      5-min Rain = 0
KCH1 100853Z 00000KT 13/12 A2982 RMK A01 T01280115  RH  092%=      5-min Rain = 0
KCH1 100854Z 00000KT 13/12 A2982 RMK A01 T01290115  RH  091%=      5-min Rain = 0
KCH1 100855Z 00000KT 13/11 A2982 RMK A01 T01290113  RH  090%=      5-min Rain = 0
KCH1 100856Z 09000KT 13/11 A2982 RMK A01 T01270109  RH  089%=      5-min Rain = 0
KCH1 100857Z 09000KT 13/11 A2982 RMK A01 T01250107  RH  089%=      5-min Rain = 0
KCH1 100858Z 00000KT 12/11 A2982 RMK A01 T01230108  RH  090%=      5-min Rain = 0
KCH1 100859Z 00000KT 12/11 A2982 RMK A01 T01230107  RH  090%=      5-min Rain = 0
KCH1 100900Z 09000KT 12/11 A2982 RMK A01 T01210106  RH  090%=      5-min Rain = 0
KCH1 100901Z 09001KT 12/11 A2982 RMK A01 T01200106  RH  091%=      5-min Rain = 0
KCH1 100902Z 08001KT 12/11 A2982 RMK A01 T01200107  RH  091%=      5-min Rain = 0
KCH1 100903Z 07001KT 12/11 A2982 RMK A01 T01190105  RH  091%=      5-min Rain = 0
KCH1 100904Z 07001KT 12/10 A2982 RMK A01 T01180104  RH  091%=      5-min Rain = 0
KCH1 100905Z 07001KT 12/11 A2982 RMK A01 T01170105  RH  092%=      5-min Rain = 0
KCH1 100906Z 07001KT 12/11 A2982 RMK A01 T01170105  RH  092%=      5-min Rain = 0
KCH1 100907Z 07001KT 12/11 A2982 RMK A01 T01170106  RH  093%=      5-min Rain = 0
KCH1 100908Z 07001KT 12/11 A2982 RMK A01 T01180107  RH  093%=      5-min Rain = 0
KCH1 100909Z 07001KT 12/11 A2982 RMK A01 T01180108  RH  093%=      5-min Rain = 0
KCH1 100910Z 07001KT 12/11 A2981 RMK A01 T01170106  RH  093%=      5-min Rain = 0
KCH1 100911Z 07001KT 12/11 A2981 RMK A01 T01170108  RH  094%=      5-min Rain = 0
KCH1 100912Z 07000KT 12/11 A2981 RMK A01 T01180111  RH  095%=      5-min Rain = 0
KCH1 100913Z 07000KT 12/11 A2982 RMK A01 T01200113  RH  095%=      5-min Rain = 0
KCH1 100914Z 07001KT 12/11 A2982 RMK A01 T01210114  RH  095%=      5-min Rain = 0
KCH1 100915Z 07001KT 12/11 A2982 RMK A01 T01190108  RH  093%=      5-min Rain = 0
KCH1 100916Z 00000KT 12/11 A2982 RMK A01 T01170105  RH  092%=      5-min Rain = 0
KCH1 100917Z 00000KT 12/11 A2981 RMK A01 T01170108  RH  094%=      5-min Rain = 0
KCH1 100918Z 00000KT 12/11 A2981 RMK A01 T01170106  RH  093%=      5-min Rain = 0
KCH1 100919Z 00000KT 12/10 A2981 RMK A01 T01150104  RH  093%=      5-min Rain = 0
KCH1 100920Z 00000KT 12/10 A2981 RMK A01 T01150104  RH  093%=      5-min Rain = 0
KCH1 100921Z 00000KT 12/11 A2981 RMK A01 T01150106  RH  094%=      5-min Rain = 0
KCH1 100922Z 00000KT 12/11 A2981 RMK A01 T01170110  RH  095%=      5-min Rain = 0
KCH1 100923Z 18000KT 12/11 A2981 RMK A01 T01190112  RH  096%=      5-min Rain = 0
KCH1 100924Z 17001KT 12/11 A2981 RMK A01 T01200113  RH  096%=      5-min Rain = 0
KCH1 100925Z 17001KT 12/12 A2981 RMK A01 T01210115  RH  096%=      5-min Rain = 0
KCH1 100926Z 17001KT 12/12 A2981 RMK A01 T01220117  RH  096%=      5-min Rain = 0
KCH1 100927Z 17001KT 12/12 A2981 RMK A01 T01230116  RH  096%=      5-min Rain = 0
KCH1 100928Z 17001KT 12/12 A2981 RMK A01 T01220115  RH  095%=      5-min Rain = 0
KCH1 100929Z 17002KT 12/12 A2981 RMK A01 T01220115  RH  095%=      5-min Rain = 0
KCH1 100930Z 17002KT 12/12 A2981 RMK A01 T01220115  RH  095%=      5-min Rain = 0
KCH1 100931Z 17002KT 12/12 A2981 RMK A01 T01220115  RH  095%=      5-min Rain = 0
KCH1 100932Z 17002KT 12/11 A2981 RMK A01 T01220114  RH  095%=      5-min Rain = 0
KCH1 100933Z 16002KT 12/11 A2981 RMK A01 T01220114  RH  095%=      5-min Rain = 0
KCH1 100934Z 16002KT 12/11 A2981 RMK A01 T01220114  RH  095%=      5-min Rain = 0
KCH1 100935Z 15002KT 12/11 A2981 RMK A01 T01200108  RH  093%=      5-min Rain = 0
KCH1 100936Z 15002KT 12/10 A2981 RMK A01 T01160102  RH  091%=      5-min Rain = 0
KCH1 100937Z 15002KT 11/10 A2981 RMK A01 T01130099  RH  091%=      5-min Rain = 0
KCH1 100938Z 15002KT 11/10 A2981 RMK A01 T01110096  RH  091%=      5-min Rain = 0
KCH1 100939Z 15002KT 11/09 A2981 RMK A01 T01080094  RH  091%=      5-min Rain = 0
KCH1 100940Z 15002KT 11/09 A2981 RMK A01 T01060091  RH  091%=      5-min Rain = 0
KCH1 100941Z 15002KT 10/09 A298 RMK A01 T01040090  RH  091%=      5-min Rain = 0
KCH1 100942Z 15002KT 10/09 A298 RMK A01 T01030089  RH  092%=      5-min Rain = 0
KCH1 100943Z 16003KT 10/09 A2981 RMK A01 T01010089  RH  092%=      5-min Rain = 0
KCH1 100944Z 17003KT 10/09 A2981 RMK A01 T01010092  RH  094%=      5-min Rain = 0
KCH1 100945Z 18003KT 11/10 A298 RMK A01 T01050099  RH  096%=      5-min Rain = 0
KCH1 100946Z 18003KT 11/10 A298 RMK A01 T01090104  RH  097%=      5-min Rain = 0
KCH1 100947Z 18004KT 11/11 A298 RMK A01 T01130110  RH  098%=      5-min Rain = 0
KCH1 100948Z 18004KT 12/11 A298 RMK A01 T01160113  RH  098%=      5-min Rain = 0
KCH1 100949Z 18004KT 12/11 A298 RMK A01 T01170114  RH  098%=      5-min Rain = 0
KCH1 100950Z 18004KT 12/12 A298 RMK A01 T01180115  RH  098%=      5-min Rain = 0
KCH1 100951Z 18004KT 12/12 A298 RMK A01 T01210118  RH  098%=      5-min Rain = 0
KCH1 100952Z 18004KT 12/12 A298 RMK A01 T01220118  RH  098%=      5-min Rain = 0
KCH1 100953Z 19004KT 12/12 A298 RMK A01 T01220118  RH  097%=      5-min Rain = 0
KCH1 100954Z 19004KT 12/12 A298 RMK A01 T01220117  RH  097%=      5-min Rain = 0
KCH1 100955Z 20004KT 12/12 A298 RMK A01 T01230118  RH  097%=      5-min Rain = 0
KCH1 100956Z 20004KT 12/12 A298 RMK A01 T01230118  RH  097%=      5-min Rain = 0
KCH1 100957Z 20004KT 12/12 A298 RMK A01 T01240118  RH  096%=      5-min Rain = 0
KCH1 100958Z 20004KT 12/12 A298 RMK A01 T01240118  RH  096%=      5-min Rain = 0
KCH1 100959Z 20004KT 12/12 A298 RMK A01 T01240117  RH  096%=      5-min Rain = 0
KCH1 101000Z 20004KT 12/12 A298 RMK A01 T01240117  RH  096%=      5-min Rain = 0
KCH1 101001Z 19004KT 12/12 A298 RMK A01 T01240117  RH  095%=      5-min Rain = 0
KCH1 101002Z 19003KT 12/12 A298 RMK A01 T01240116  RH  095%=      5-min Rain = 0
KCH1 101003Z 19003KT 12/10 A298 RMK A01 T01190104  RH  091%=      5-min Rain = 0
KCH1 101004Z 19002KT 11/09 A298 RMK A01 T01090089  RH  087%=      5-min Rain = 0
KCH1 101005Z 18002KT 10/08 A298 RMK A01 T01020082  RH  087%=      5-min Rain = 0
KCH1 101006Z 17001KT 10/08 A298 RMK A01 T00980079  RH  088%=      5-min Rain = 0
KCH1 101007Z 17001KT 09/08 A298 RMK A01 T00940076  RH  089%=      5-min Rain = 0
KCH1 101008Z 17001KT 09/08 A298 RMK A01 T00920077  RH  091%=      5-min Rain = 0
KCH1 101009Z 17000KT 09/08 A298 RMK A01 T00910080  RH  092%=      5-min Rain = 0
KCH1 101010Z 16001KT 09/08 A298 RMK A01 T00920082  RH  093%=      5-min Rain = 0
KCH1 101011Z 14001KT 09/08 A298 RMK A01 T00920083  RH  094%=      5-min Rain = 0
KCH1 101012Z 14001KT 09/08 A298 RMK A01 T00920083  RH  094%=      5-min Rain = 0
KCH1 101013Z 13001KT 09/08 A298 RMK A01 T00920084  RH  094%=      5-min Rain = 0
KCH1 101014Z 13001KT 09/08 A298 RMK A01 T00920084  RH  095%=      5-min Rain = 0
KCH1 101015Z 13002KT 09/09 A298 RMK A01 T00930086  RH  095%=      5-min Rain = 0
KCH1 101016Z 13002KT 09/09 A298 RMK A01 T00940088  RH  096%=      5-min Rain = 0
KCH1 101017Z 14002KT 10/09 A298 RMK A01 T00950089  RH  096%=      5-min Rain = 0
KCH1 101018Z 15002KT 10/09 A298 RMK A01 T00960091  RH  096%=      5-min Rain = 0
KCH1 101019Z 16003KT 10/09 A298 RMK A01 T00980094  RH  097%=      5-min Rain = 0
KCH1 101020Z 16004KT 10/10 A298 RMK A01 T01000095  RH  097%=      5-min Rain = 0
KCH1 101021Z 16004KT 10/10 A298 RMK A01 T01000095  RH  097%=      5-min Rain = 0
KCH1 101022Z 16004KT 10/10 A298 RMK A01 T01010097  RH  097%=      5-min Rain = 0
KCH1 101023Z 16004KT 10/10 A298 RMK A01 T01040100  RH  098%=      5-min Rain = 0
KCH1 101024Z 17005KT 11/10 A298 RMK A01 T01060103  RH  098%=      5-min Rain = 0
KCH1 101025Z 17005KT 11/10 A298 RMK A01 T01070104  RH  098%=      5-min Rain = 0
KCH1 101026Z 18005KT 11/11 A298 RMK A01 T01090106  RH  098%=      5-min Rain = 0
KCH1 101027Z 18005KT 11/11 A298 RMK A01 T01090107  RH  098%=      5-min Rain = 0
KCH1 101028Z 19005KT 11/11 A298 RMK A01 T01100107  RH  098%=      5-min Rain = 0
KCH1 101029Z 20004KT 11/11 A298 RMK A01 T01110108  RH  098%=      5-min Rain = 0
KCH1 101030Z 20004KT 11/11 A298 RMK A01 T01120109  RH  098%=      5-min Rain = 0
KCH1 101031Z 20004KT 11/11 A298 RMK A01 T01140111  RH  098%=      5-min Rain = 0
KCH1 101032Z 20004KT 11/11 A298 RMK A01 T01140111  RH  098%=      5-min Rain = 0
KCH1 101033Z 21004KT 11/11 A298 RMK A01 T01140111  RH  098%=      5-min Rain = 0
KCH1 101034Z 21004KT 12/11 A298 RMK A01 T01150111  RH  098%=      5-min Rain = 0
KCH1 101035Z 21004KT 12/11 A298 RMK A01 T01150111  RH  098%=      5-min Rain = 0
KCH1 101036Z 21005KT 12/11 A298 RMK A01 T01150112  RH  098%=      5-min Rain = 0
KCH1 101037Z 22004KT 12/11 A298 RMK A01 T01150111  RH  097%=      5-min Rain = 0
KCH1 101038Z 22004KT 12/11 A298 RMK A01 T01150111  RH  097%=      5-min Rain = 0
KCH1 101039Z 22004KT 12/11 A298 RMK A01 T01160111  RH  097%=      5-min Rain = 0
KCH1 101040Z 21003KT 12/11 A298 RMK A01 T01160111  RH  097%=      5-min Rain = 0
KCH1 101041Z 21003KT 12/11 A298 RMK A01 T01160111  RH  097%=      5-min Rain = 0
KCH1 101042Z 21002KT 12/11 A298 RMK A01 T01160110  RH  096%=      5-min Rain = 0
KCH1 101043Z 20002KT 11/11 A298 RMK A01 T01140108  RH  096%=      5-min Rain = 0
KCH1 101044Z 20002KT 11/11 A298 RMK A01 T01130107  RH  096%=      5-min Rain = 0
KCH1 101045Z 21002KT 11/11 A298 RMK A01 T01130107  RH  096%=      5-min Rain = 0
KCH1 101046Z 21002KT 11/11 A298 RMK A01 T01130106  RH  096%=      5-min Rain = 0
KCH1 101047Z 23002KT 11/11 A2981 RMK A01 T01130107  RH  096%=      5-min Rain = 0
KCH1 101048Z 25002KT 11/11 A2981 RMK A01 T01120106  RH  096%=      5-min Rain = 0
KCH1 101049Z 25003KT 11/11 A2981 RMK A01 T01130108  RH  096%=      5-min Rain = 0
KCH1 101050Z 24003KT 12/11 A2981 RMK A01 T01150111  RH  097%=      5-min Rain = 0
KCH1 101051Z 24003KT 12/11 A2981 RMK A01 T01170113  RH  097%=      5-min Rain = 0
KCH1 101052Z 24002KT 12/11 A2981 RMK A01 T01180113  RH  097%=      5-min Rain = 0
KCH1 101053Z 24003KT 12/11 A2981 RMK A01 T01180113  RH  097%=      5-min Rain = 0
KCH1 101054Z 24004KT 12/11 A2981 RMK A01 T01180112  RH  096%=      5-min Rain = 0
KCH1 101055Z 25004KT 12/11 A2981 RMK A01 T01180112  RH  096%=      5-min Rain = 0
KCH1 101056Z 25004KT 12/11 A2981 RMK A01 T01180112  RH  096%=      5-min Rain = 0
KCH1 101057Z 24004KT 12/11 A2981 RMK A01 T01190114  RH  097%=      5-min Rain = 0
KCH1 101058Z 25003KT 12/12 A2981 RMK A01 T01210116  RH  097%=      5-min Rain = 0
KCH1 101059Z 24003KT 12/12 A2981 RMK A01 T01210116  RH  097%=      5-min Rain = 0
KCH1 101100Z 24002KT 12/12 A2981 RMK A01 T01220116  RH  096%=      5-min Rain = 0
KCH1 101101Z 24002KT 12/12 A2981 RMK A01 T01220115  RH  095%=      5-min Rain = 0
KCH1 101102Z 24002KT 12/11 A2981 RMK A01 T01200112  RH  095%=      5-min Rain = 0
KCH1 101103Z 23002KT 12/11 A2981 RMK A01 T01200112  RH  095%=      5-min Rain = 0
KCH1 101104Z 22002KT 12/11 A2981 RMK A01 T01190110  RH  094%=      5-min Rain = 0
KCH1 101105Z 21002KT 12/11 A2981 RMK A01 T01180108  RH  094%=      5-min Rain = 0
KCH1 101106Z 21003KT 12/11 A2981 RMK A01 T01170107  RH  094%=      5-min Rain = 0
KCH1 101107Z 22004KT 12/11 A2981 RMK A01 T01170108  RH  094%=      5-min Rain = 0
KCH1 101108Z 22003KT 12/11 A2981 RMK A01 T01160108  RH  094%=      5-min Rain = 0
KCH1 101109Z 22003KT 12/11 A2981 RMK A01 T01160108  RH  094%=      5-min Rain = 0
KCH1 101110Z 22003KT 12/11 A2981 RMK A01 T01160108  RH  094%=      5-min Rain = 0
KCH1 101111Z 23004KT 12/11 A2981 RMK A01 T01170108  RH  094%=      5-min Rain = 0
KCH1 101112Z 23004KT 12/11 A2981 RMK A01 T01160108  RH  095%=      5-min Rain = 0
KCH1 101113Z 23004KT 12/11 A2981 RMK A01 T01170109  RH  095%=      5-min Rain = 0
KCH1 101114Z 23004KT 12/11 A2981 RMK A01 T01180111  RH  095%=      5-min Rain = 0
KCH1 101115Z 23004KT 12/11 A2981 RMK A01 T01200114  RH  096%=      5-min Rain = 0
KCH1 101116Z 23004KT 12/12 A2981 RMK A01 T01210115  RH  096%=      5-min Rain = 0
KCH1 101117Z 24004KT 12/12 A2981 RMK A01 T01220115  RH  096%=      5-min Rain = 0
KCH1 101118Z 24004KT 12/12 A2981 RMK A01 T01230116  RH  096%=      5-min Rain = 0
KCH1 101119Z 24004KT 12/12 A2981 RMK A01 T01230116  RH  095%=      5-min Rain = 0
KCH1 101120Z 24004KT 12/12 A2981 RMK A01 T01240117  RH  095%=      5-min Rain = 0
KCH1 101121Z 24004KT 12/12 A2982 RMK A01 T01240117  RH  095%=      5-min Rain = 0
KCH1 101122Z 24004KT 13/12 A2982 RMK A01 T01250118  RH  095%=      5-min Rain = 0
KCH1 101123Z 24004KT 13/12 A2981 RMK A01 T01260118  RH  095%=      5-min Rain = 0
KCH1 101124Z 23003KT 13/12 A2981 RMK A01 T01260118  RH  095%=      5-min Rain = 0
KCH1 101125Z 23003KT 13/12 A2981 RMK A01 T01270119  RH  095%=      5-min Rain = 0
KCH1 101126Z 23003KT 13/12 A2981 RMK A01 T01270119  RH  095%=      5-min Rain = 0
KCH1 101127Z 23003KT 13/12 A2981 RMK A01 T01280120  RH  095%=      5-min Rain = 0
KCH1 101128Z 23002KT 13/12 A2982 RMK A01 T01290120  RH  095%=      5-min Rain = 0
KCH1 101129Z 23002KT 13/12 A2982 RMK A01 T01290120  RH  095%=      5-min Rain = 0
KCH1 101130Z 21003KT 13/12 A2982 RMK A01 T01290120  RH  094%=      5-min Rain = 0
KCH1 101131Z 21003KT 13/12 A2982 RMK A01 T01290119  RH  094%=      5-min Rain = 0
KCH1 101132Z 21003KT 13/12 A2982 RMK A01 T01280118  RH  093%=      5-min Rain = 0
KCH1 101133Z 23003KT 13/12 A2982 RMK A01 T01270116  RH  093%=      5-min Rain = 0
KCH1 101134Z 22002KT 13/12 A2982 RMK A01 T01260115  RH  093%=      5-min Rain = 0
KCH1 101135Z 21002KT 13/12 A2982 RMK A01 T01260116  RH  094%=      5-min Rain = 0
KCH1 101136Z 20002KT 13/12 A2982 RMK A01 T01270118  RH  094%=      5-min Rain = 0
KCH1 101137Z 20002KT 13/12 A2982 RMK A01 T01270117  RH  094%=      5-min Rain = 0
KCH1 101138Z 21002KT 13/11 A2982 RMK A01 T01260114  RH  092%=      5-min Rain = 0
KCH1 101139Z 21002KT 12/11 A2982 RMK A01 T01230109  RH  091%=      5-min Rain = 0
KCH1 101140Z 22002KT 12/11 A2982 RMK A01 T01230112  RH  093%=      5-min Rain = 0
KCH1 101141Z 23003KT 13/12 A2982 RMK A01 T01250115  RH  094%=      5-min Rain = 0
KCH1 101142Z 23003KT 13/12 A2982 RMK A01 T01260118  RH  095%=      5-min Rain = 0
KCH1 101143Z 23004KT 13/12 A2982 RMK A01 T01280120  RH  095%=      5-min Rain = 0
KCH1 101144Z 23004KT 13/12 A2982 RMK A01 T01290123  RH  096%=      5-min Rain = 0
KCH1 101145Z 23003KT 13/12 A2982 RMK A01 T01300123  RH  096%=      5-min Rain = 0
KCH1 101146Z 23003KT 13/12 A2982 RMK A01 T01310124  RH  095%=      5-min Rain = 0
KCH1 101147Z 23003KT 13/12 A2982 RMK A01 T01320124  RH  095%=      5-min Rain = 0
KCH1 101148Z 23003KT 13/12 A2982 RMK A01 T01320124  RH  095%=      5-min Rain = 0
KCH1 101149Z 23003KT 13/12 A2982 RMK A01 T01330124  RH  094%=      5-min Rain = 0
KCH1 101150Z 23003KT 13/12 A2982 RMK A01 T01330124  RH  094%=      5-min Rain = 0
KCH1 101151Z 23003KT 13/12 A2982 RMK A01 T01340124  RH  094%=      5-min Rain = 0
KCH1 101152Z 24003KT 13/13 A2982 RMK A01 T01340125  RH  094%=      5-min Rain = 0
KCH1 101153Z 22002KT 13/12 A2983 RMK A01 T01340124  RH  094%=      5-min Rain = 0
KCH1 101154Z 22002KT 13/12 A2983 RMK A01 T01340124  RH  094%=      5-min Rain = 0
KCH1 101155Z 23001KT 13/12 A2983 RMK A01 T01340124  RH  094%=      5-min Rain = 0
KCH1 101156Z 20001KT 14/13 A2983 RMK A01 T01350125  RH  094%=      5-min Rain = 0
KCH1 101157Z 20001KT 14/13 A2983 RMK A01 T01350125  RH  094%=      5-min Rain = 0
KCH1 101158Z 19000KT 14/13 A2983 RMK A01 T01350125  RH  093%=      5-min Rain = 0
KCH1 101159Z 18000KT 13/11 A2983 RMK A01 T01290105  RH  086%=      5-min Rain = 0
KCH1 101200Z 18000KT 12/09 A2983 RMK A01 T01180090  RH  083%=      5-min Rain = 0
KCH1 101201Z 18000KT 11/09 A2983 RMK A01 T01140090  RH  085%=      5-min Rain = 0
KCH1 101202Z 18000KT 11/09 A2983 RMK A01 T01120094  RH  089%=      5-min Rain = 0
KCH1 101203Z 00000KT 11/10 A2983 RMK A01 T01120096  RH  090%=      5-min Rain = 0
KCH1 101204Z 00000KT 11/10 A2983 RMK A01 T01120098  RH  091%=      5-min Rain = 0
KCH1 101205Z 00000KT 11/10 A2983 RMK A01 T01120099  RH  092%=      5-min Rain = 0
KCH1 101206Z 00000KT 11/10 A2983 RMK A01 T01120100  RH  092%=      5-min Rain = 0
KCH1 101207Z 00000KT 11/10 A2983 RMK A01 T01130102  RH  093%=      5-min Rain = 0
KCH1 101208Z 18000KT 12/11 A2983 RMK A01 T01150107  RH  095%=      5-min Rain = 0
KCH1 101209Z 18000KT 12/11 A2983 RMK A01 T01180111  RH  096%=      5-min Rain = 0
KCH1 101210Z 23001KT 12/11 A2983 RMK A01 T01190111  RH  095%=      5-min Rain = 0
KCH1 101211Z 23001KT 12/11 A2983 RMK A01 T01190112  RH  095%=      5-min Rain = 0
KCH1 101212Z 23001KT 12/11 A2983 RMK A01 T01210114  RH  096%=      5-min Rain = 0
KCH1 101213Z 24002KT 12/12 A2983 RMK A01 T01230118  RH  097%=      5-min Rain = 0
KCH1 101214Z 24002KT 12/12 A2983 RMK A01 T01240119  RH  097%=      5-min Rain = 0
KCH1 101215Z 23003KT 13/12 A2983 RMK A01 T01260121  RH  097%=      5-min Rain = 0
KCH1 101216Z 25001KT 13/12 A2983 RMK A01 T01270122  RH  097%=      5-min Rain = 0
KCH1 101217Z 24002KT 13/12 A2983 RMK A01 T01270122  RH  096%=      5-min Rain = 0
KCH1 101218Z 25002KT 13/12 A2983 RMK A01 T01280123  RH  096%=      5-min Rain = 0
KCH1 101219Z 26002KT 13/13 A2983 RMK A01 T01300125  RH  096%=      5-min Rain = 0
KCH1 101220Z 26001KT 13/13 A2983 RMK A01 T01310125  RH  096%=      5-min Rain = 0
KCH1 101221Z 26001KT 13/12 A2983 RMK A01 T01310124  RH  096%=      5-min Rain = 0
KCH1 101222Z 25001KT 13/12 A2983 RMK A01 T01310124  RH  095%=      5-min Rain = 0
KCH1 101223Z 25001KT 13/12 A2983 RMK A01 T01310124  RH  095%=      5-min Rain = 0
KCH1 101224Z 24001KT 13/12 A2983 RMK A01 T01320124  RH  095%=      5-min Rain = 0
KCH1 101225Z 22001KT 13/12 A2983 RMK A01 T01320124  RH  095%=      5-min Rain = 0
KCH1 101226Z 22001KT 13/13 A2983 RMK A01 T01330125  RH  095%=      5-min Rain = 0
KCH1 101227Z 22002KT 13/13 A2983 RMK A01 T01330125  RH  095%=      5-min Rain = 0
KCH1 101228Z 23002KT 13/12 A2984 RMK A01 T01330123  RH  094%=      5-min Rain = 0
KCH1 101229Z 23001KT 13/12 A2984 RMK A01 T01330124  RH  094%=      5-min Rain = 0
KCH1 101230Z 23002KT 13/13 A2984 RMK A01 T01330125  RH  094%=      5-min Rain = 0
KCH1 101231Z 22001KT 13/12 A2984 RMK A01 T01340124  RH  094%=      5-min Rain = 0
KCH1 101232Z 21001KT 13/13 A2983 RMK A01 T01340125  RH  094%=      5-min Rain = 0
KCH1 101233Z 22002KT 13/13 A2983 RMK A01 T01340125  RH  094%=      5-min Rain = 0
KCH1 101234Z 20002KT 13/12 A2983 RMK A01 T01340124  RH  094%=      5-min Rain = 0
KCH1 101235Z 21002KT 14/12 A2983 RMK A01 T01350124  RH  094%=      5-min Rain = 0
KCH1 101236Z 20001KT 13/12 A2983 RMK A01 T01340123  RH  093%=      5-min Rain = 0
KCH1 101237Z 22002KT 13/12 A2983 RMK A01 T01330123  RH  093%=      5-min Rain = 0
KCH1 101238Z 21002KT 13/12 A2983 RMK A01 T01330123  RH  094%=      5-min Rain = 0
KCH1 101239Z 20002KT 13/12 A2983 RMK A01 T01330124  RH  094%=      5-min Rain = 0
KCH1 101240Z 19002KT 13/12 A2983 RMK A01 T01340124  RH  094%=      5-min Rain = 0
KCH1 101241Z 18001KT 13/12 A2984 RMK A01 T01340124  RH  094%=      5-min Rain = 0
KCH1 101242Z 20001KT 13/13 A2984 RMK A01 T01340125  RH  094%=      5-min Rain = 0
KCH1 101243Z 19001KT 13/13 A2984 RMK A01 T01340125  RH  094%=      5-min Rain = 0
KCH1 101244Z 18001KT 14/13 A2984 RMK A01 T01350125  RH  094%=      5-min Rain = 0
KCH1 101245Z 19002KT 14/13 A2984 RMK A01 T01350125  RH  094%=      5-min Rain = 0
KCH1 101246Z 20002KT 14/13 A2984 RMK A01 T01350125  RH  094%=      5-min Rain = 0
KCH1 101247Z 20002KT 14/13 A2984 RMK A01 T01350125  RH  094%=      5-min Rain = 0
KCH1 101248Z 19002KT 14/13 A2984 RMK A01 T01350125  RH  094%=      5-min Rain = 0
KCH1 101249Z 20002KT 14/13 A2984 RMK A01 T01350125  RH  094%=      5-min Rain = 0
KCH1 101250Z 21002KT 14/13 A2984 RMK A01 T01350125  RH  094%=      5-min Rain = 0
KCH1 101251Z 19003KT 14/13 A2984 RMK A01 T01350125  RH  094%=      5-min Rain = 0
KCH1 101252Z 21002KT 14/13 A2984 RMK A01 T01350125  RH  094%=      5-min Rain = 0
KCH1 101253Z 18002KT 14/13 A2984 RMK A01 T01350125  RH  094%=      5-min Rain = 0
KCH1 101254Z 18002KT 14/12 A2984 RMK A01 T01350124  RH  093%=      5-min Rain = 0
KCH1 101255Z 19002KT 13/12 A2984 RMK A01 T01340124  RH  094%=      5-min Rain = 0
KCH1 101256Z 19002KT 13/13 A2984 RMK A01 T01340125  RH  094%=      5-min Rain = 0
KCH1 101257Z 18001KT 13/13 A2984 RMK A01 T01340125  RH  094%=      5-min Rain = 0
KCH1 101258Z 18002KT 13/13 A2984 RMK A01 T01340125  RH  094%=      5-min Rain = 0
KCH1 101259Z 17001KT 13/12 A2984 RMK A01 T01340124  RH  094%=      5-min Rain = 0
KCH1 101300Z 17002KT 13/12 A2984 RMK A01 T01330124  RH  094%=      5-min Rain = 0
KCH1 101301Z 20001KT 13/13 A2984 RMK A01 T01330125  RH  095%=      5-min Rain = 0
KCH1 101302Z 16001KT 13/13 A2984 RMK A01 T01330125  RH  095%=      5-min Rain = 0
KCH1 101303Z 18001KT 13/13 A2984 RMK A01 T01330125  RH  095%=      5-min Rain = 0
KCH1 101304Z 18001KT 13/13 A2984 RMK A01 T01330125  RH  095%=      5-min Rain = 0
KCH1 101305Z 18001KT 13/13 A2984 RMK A01 T01330125  RH  095%=      5-min Rain = 0
KCH1 101306Z 19002KT 13/13 A2984 RMK A01 T01330125  RH  095%=      5-min Rain = 0
KCH1 101307Z 19001KT 13/13 A2984 RMK A01 T01330125  RH  095%=      5-min Rain = 0
KCH1 101308Z 19001KT 13/13 A2984 RMK A01 T01330125  RH  095%=      5-min Rain = 0
KCH1 101309Z 19001KT 13/13 A2984 RMK A01 T01320125  RH  095%=      5-min Rain = 0
KCH1 101310Z 19001KT 13/13 A2984 RMK A01 T01320126  RH  096%=      5-min Rain = 0
KCH1 101311Z 19001KT 13/13 A2984 RMK A01 T01330126  RH  096%=      5-min Rain = 0
KCH1 101312Z 19001KT 13/13 A2984 RMK A01 T01320125  RH  096%=      5-min Rain = 0
KCH1 101313Z 19000KT 13/13 A2984 RMK A01 T01320125  RH  095%=      5-min Rain = 0
KCH1 101314Z 00000KT 13/12 A2984 RMK A01 T01300121  RH  094%=      5-min Rain = 0
KCH1 101315Z 00000KT 12/11 A2984 RMK A01 T01220107  RH  090%=      5-min Rain = 0
KCH1 101316Z 00000KT 12/10 A2984 RMK A01 T01160101  RH  090%=      5-min Rain = 0
KCH1 101317Z 00000KT 11/10 A2984 RMK A01 T01130098  RH  091%=      5-min Rain = 0
KCH1 101318Z 00000KT 11/10 A2984 RMK A01 T01100097  RH  092%=      5-min Rain = 0
KCH1 101319Z 00000KT 11/09 A2984 RMK A01 T01070094  RH  091%=      5-min Rain = 0
KCH1 101320Z 00000KT 11/09 A2984 RMK A01 T01050092  RH  092%=      5-min Rain = 0
KCH1 101321Z 00000KT 10/09 A2984 RMK A01 T01040092  RH  092%=      5-min Rain = 0
KCH1 101322Z 00000KT 10/09 A2984 RMK A01 T01040094  RH  093%=      5-min Rain = 0
KCH1 101323Z 00000KT 11/10 A2984 RMK A01 T01050096  RH  095%=      5-min Rain = 0
KCH1 101324Z 00000KT 11/10 A2984 RMK A01 T01070100  RH  095%=      5-min Rain = 0
KCH1 101325Z 00000KT 11/10 A2984 RMK A01 T01090102  RH  096%=      5-min Rain = 0
KCH1 101326Z 00000KT 11/11 A2984 RMK A01 T01100105  RH  096%=      5-min Rain = 0
KCH1 101327Z 11000KT 11/11 A2984 RMK A01 T01130109  RH  097%=      5-min Rain = 0
KCH1 101328Z 11001KT 12/11 A2984 RMK A01 T01170114  RH  098%=      5-min Rain = 0
KCH1 101329Z 11002KT 12/11 A2984 RMK A01 T01170113  RH  097%=      5-min Rain = 0
KCH1 101330Z 11001KT 12/11 A2984 RMK A01 T01160110  RH  096%=      5-min Rain = 0
KCH1 101331Z 11001KT 12/11 A2984 RMK A01 T01150109  RH  096%=      5-min Rain = 0
KCH1 101332Z 11001KT 11/11 A2984 RMK A01 T01140107  RH  096%=      5-min Rain = 0
KCH1 101333Z 11001KT 11/11 A2984 RMK A01 T01120105  RH  095%=      5-min Rain = 0
KCH1 101334Z 11001KT 11/10 A2984 RMK A01 T01120104  RH  095%=      5-min Rain = 0
KCH1 101335Z 11001KT 11/11 A2984 RMK A01 T01140109  RH  097%=      5-min Rain = 0
KCH1 101336Z 11001KT 12/11 A2984 RMK A01 T01170113  RH  097%=      5-min Rain = 0
KCH1 101337Z 11001KT 12/12 A2984 RMK A01 T01200117  RH  098%=      5-min Rain = 0
KCH1 101338Z 12001KT 12/12 A2984 RMK A01 T01220118  RH  098%=      5-min Rain = 0
KCH1 101339Z 12001KT 12/12 A2983 RMK A01 T01230120  RH  098%=      5-min Rain = 0
KCH1 101340Z 12002KT 12/12 A2983 RMK A01 T01240121  RH  098%=      5-min Rain = 0
KCH1 101341Z 13002KT 13/12 A2983 RMK A01 T01250122  RH  098%=      5-min Rain = 0
KCH1 101342Z 13002KT 13/12 A2984 RMK A01 T01250121  RH  097%=      5-min Rain = 0
KCH1 101343Z 15002KT 13/12 A2984 RMK A01 T01250121  RH  097%=      5-min Rain = 0
KCH1 101344Z 15002KT 13/12 A2984 RMK A01 T01260121  RH  097%=      5-min Rain = 0
KCH1 101345Z 15003KT 13/12 A2984 RMK A01 T01260120  RH  096%=      5-min Rain = 0
KCH1 101346Z 15003KT 13/12 A2984 RMK A01 T01250119  RH  096%=      5-min Rain = 0
KCH1 101347Z 15003KT 12/12 A2984 RMK A01 T01240116  RH  095%=      5-min Rain = 0
KCH1 101348Z 14003KT 12/11 A2984 RMK A01 T01220112  RH  094%=      5-min Rain = 0
KCH1 101349Z 14003KT 12/11 A2984 RMK A01 T01200109  RH  093%=      5-min Rain = 0
KCH1 101350Z 15003KT 12/11 A2984 RMK A01 T01170105  RH  092%=      5-min Rain = 0
KCH1 101351Z 16003KT 12/10 A2984 RMK A01 T01150103  RH  092%=      5-min Rain = 0
KCH1 101352Z 16002KT 11/10 A2984 RMK A01 T01140102  RH  093%=      5-min Rain = 0
KCH1 101353Z 16002KT 11/10 A2984 RMK A01 T01130103  RH  093%=      5-min Rain = 0
KCH1 101354Z 16002KT 11/10 A2984 RMK A01 T01140104  RH  094%=      5-min Rain = 0
KCH1 101355Z 16002KT 11/11 A2984 RMK A01 T01140105  RH  094%=      5-min Rain = 0
KCH1 101356Z 16002KT 11/11 A2983 RMK A01 T01140105  RH  094%=      5-min Rain = 0
KCH1 101357Z 16002KT 12/11 A2983 RMK A01 T01150106  RH  094%=      5-min Rain = 0
KCH1 101358Z 15002KT 12/11 A2983 RMK A01 T01150107  RH  095%=      5-min Rain = 0
KCH1 101359Z 15002KT 12/11 A2983 RMK A01 T01150107  RH  095%=      5-min Rain = 0
KCH1 101400Z 15002KT 12/11 A2983 RMK A01 T01150108  RH  095%=      5-min Rain = 0
KCH1 101401Z 15002KT 12/11 A2983 RMK A01 T01160109  RH  095%=      5-min Rain = 0
KCH1 101402Z 15002KT 12/11 A2983 RMK A01 T01170110  RH  095%=      5-min Rain = 0
KCH1 101403Z 15002KT 12/11 A2983 RMK A01 T01180111  RH  095%=      5-min Rain = 0
KCH1 101404Z 15002KT 12/11 A2983 RMK A01 T01190112  RH  096%=      5-min Rain = 0
KCH1 101405Z 15002KT 12/11 A2983 RMK A01 T01200113  RH  096%=      5-min Rain = 0
KCH1 101406Z 15001KT 12/11 A2983 RMK A01 T01200114  RH  096%=      5-min Rain = 0
KCH1 101407Z 15001KT 12/12 A2983 RMK A01 T01220115  RH  096%=      5-min Rain = 0
KCH1 101408Z 15001KT 12/12 A2983 RMK A01 T01220116  RH  096%=      5-min Rain = 0
KCH1 101409Z 17001KT 12/12 A2983 RMK A01 T01230117  RH  096%=      5-min Rain = 0
KCH1 101410Z 18001KT 12/12 A2983 RMK A01 T01240118  RH  096%=      5-min Rain = 0
KCH1 101411Z 18002KT 13/12 A2984 RMK A01 T01250119  RH  096%=      5-min Rain = 0
KCH1 101412Z 18002KT 13/12 A2984 RMK A01 T01260120  RH  096%=      5-min Rain = 0
KCH1 101413Z 19002KT 13/12 A2984 RMK A01 T01280122  RH  097%=      5-min Rain = 0
KCH1 101414Z 18002KT 13/12 A2984 RMK A01 T01290124  RH  097%=      5-min Rain = 0
KCH1 101415Z 16002KT 13/13 A2984 RMK A01 T01310126  RH  097%=      5-min Rain = 0
KCH1 101416Z 16001KT 13/13 A2984 RMK A01 T01320127  RH  097%=      5-min Rain = 0
KCH1 101417Z 16001KT 13/13 A2984 RMK A01 T01330128  RH  097%=      5-min Rain = 0
KCH1 101418Z 15001KT 13/13 A2983 RMK A01 T01340128  RH  096%=      5-min Rain = 0
KCH1 101419Z 16001KT 13/13 A2983 RMK A01 T01340128  RH  096%=      5-min Rain = 0
KCH1 101420Z 15001KT 14/13 A2983 RMK A01 T01350129  RH  096%=      5-min Rain = 0
KCH1 101421Z 15001KT 14/13 A2983 RMK A01 T01360129  RH  096%=      5-min Rain = 0
KCH1 101422Z 15001KT 14/13 A2983 RMK A01 T01360129  RH  095%=      5-min Rain = 0
KCH1 101423Z 14001KT 14/13 A2983 RMK A01 T01360128  RH  095%=      5-min Rain = 0
KCH1 101424Z 15001KT 14/13 A2983 RMK A01 T01370128  RH  094%=      5-min Rain = 0
KCH1 101425Z 15001KT 14/13 A2983 RMK A01 T01370127  RH  094%=      5-min Rain = 0
KCH1 101426Z 17002KT 14/13 A2983 RMK A01 T01370127  RH  094%=      5-min Rain = 0
KCH1 101427Z 17001KT 14/13 A2983 RMK A01 T01370126  RH  093%=      5-min Rain = 0
KCH1 101428Z 16001KT 14/13 A2983 RMK A01 T01370127  RH  093%=      5-min Rain = 0
KCH1 101429Z 16001KT 14/13 A2983 RMK A01 T01380127  RH  093%=      5-min Rain = 0
KCH1 101430Z 16001KT 14/13 A2983 RMK A01 T01390128  RH  093%=      5-min Rain = 0
KCH1 101431Z 17001KT 14/13 A2983 RMK A01 T01410130  RH  093%=      5-min Rain = 0
KCH1 101432Z 16001KT 14/13 A2983 RMK A01 T01430132  RH  093%=      5-min Rain = 0
KCH1 101433Z 14002KT 15/13 A2983 RMK A01 T01450134  RH  093%=      5-min Rain = 0
KCH1 101434Z 13002KT 15/14 A2983 RMK A01 T01480135  RH  092%=      5-min Rain = 0
KCH1 101435Z 11001KT 15/13 A2983 RMK A01 T01500134  RH  090%=      5-min Rain = 0
KCH1 101436Z 09001KT 15/13 A2983 RMK A01 T01510132  RH  088%=      5-min Rain = 0
KCH1 101437Z 09001KT 15/13 A2983 RMK A01 T01520132  RH  088%=      5-min Rain = 0
KCH1 101438Z 06001KT 15/13 A2983 RMK A01 T01530129  RH  086%=      5-min Rain = 0
KCH1 101439Z 09002KT 15/13 A2983 RMK A01 T01530130  RH  086%=      5-min Rain = 0
KCH1 101440Z 08001KT 15/13 A2983 RMK A01 T01540129  RH  085%=      5-min Rain = 0
KCH1 101441Z 11002KT 16/13 A2983 RMK A01 T01550130  RH  085%=      5-min Rain = 0
KCH1 101442Z 16003KT 16/13 A2983 RMK A01 T01560130  RH  084%=      5-min Rain = 0
KCH1 101443Z 17003KT 16/13 A2983 RMK A01 T01560131  RH  085%=      5-min Rain = 0
KCH1 101444Z 17002KT 16/13 A2983 RMK A01 T01560131  RH  085%=      5-min Rain = 0
KCH1 101445Z 17003KT 16/13 A2983 RMK A01 T01560132  RH  086%=      5-min Rain = 0
KCH1 101446Z 19003KT 16/13 A2983 RMK A01 T01560132  RH  086%=      5-min Rain = 0
KCH1 101447Z 19002KT 16/13 A2983 RMK A01 T01560132  RH  085%=      5-min Rain = 0
KCH1 101448Z 21002KT 16/13 A2983 RMK A01 T01570132  RH  085%=      5-min Rain = 0
KCH1 101449Z 23002KT 16/13 A2983 RMK A01 T01580132  RH  085%=      5-min Rain = 0
KCH1 101450Z 20002KT 16/13 A2984 RMK A01 T01590133  RH  085%=      5-min Rain = 0
KCH1 101451Z 20002KT 16/13 A2984 RMK A01 T01590133  RH  084%=      5-min Rain = 0
KCH1 101452Z 22003KT 16/13 A2984 RMK A01 T01610133  RH  084%=      5-min Rain = 0
KCH1 101453Z 23003KT 16/13 A2984 RMK A01 T01620133  RH  083%=      5-min Rain = 0
KCH1 101454Z 22003KT 16/13 A2984 RMK A01 T01620133  RH  083%=      5-min Rain = 0
KCH1 101455Z 22005KT 16/13 A2984 RMK A01 T01630133  RH  082%=      5-min Rain = 0
KCH1 101456Z 23003KT 16/13 A2984 RMK A01 T01630133  RH  083%=      5-min Rain = 0
KCH1 101457Z 24003KT 16/13 A2984 RMK A01 T01630134  RH  083%=      5-min Rain = 0
KCH1 101458Z 23003KT 16/13 A2984 RMK A01 T01630133  RH  082%=      5-min Rain = 0
KCH1 101459Z 23003KT 16/13 A2984 RMK A01 T01630134  RH  083%=      5-min Rain = 0
KCH1 101500Z 23004KT 16/14 A2984 RMK A01 T01640135  RH  083%=      5-min Rain = 0
KCH1 101501Z 22006KT 17/13 A2984 RMK A01 T01650134  RH  082%=      5-min Rain = 0
KCH1 101502Z 21005KT 17/13 A2984 RMK A01 T01660133  RH  081%=      5-min Rain = 0
KCH1 101503Z 22005KT 17/13 A2984 RMK A01 T01660134  RH  081%=      5-min Rain = 0
KCH1 101504Z 21005KT 17/13 A2984 RMK A01 T01680133  RH  080%=      5-min Rain = 0
KCH1 101505Z 21006KT 17/13 A2983 RMK A01 T01690132  RH  079%=      5-min Rain = 0
KCH1 101506Z 21005KT 17/13 A2983 RMK A01 T01710133  RH  078%=      5-min Rain = 0
KCH1 101507Z 23004KT 17/13 A2983 RMK A01 T01710133  RH  078%=      5-min Rain = 0
KCH1 101508Z 23004KT 17/13 A2983 RMK A01 T01720134  RH  078%=      5-min Rain = 0
KCH1 101509Z 25004KT 17/13 A2983 RMK A01 T01740132  RH  077%=      5-min Rain = 0
KCH1 101510Z 22002KT 17/13 A2983 RMK A01 T01740132  RH  077%=      5-min Rain = 0
KCH1 101511Z 21005KT 17/13 A2983 RMK A01 T01740132  RH  076%=      5-min Rain = 0
KCH1 101512Z 22004KT 18/13 A2983 RMK A01 T01760133  RH  076%=      5-min Rain = 0
KCH1 101513Z 21005KT 18/13 A2983 RMK A01 T01780133  RH  075%=      5-min Rain = 0
KCH1 101514Z 21006KT 18/13 A2983 RMK A01 T01790132  RH  074%=      5-min Rain = 0
KCH1 101515Z 22006KT 18/13 A2983 RMK A01 T01790130  RH  073%=      5-min Rain = 0
KCH1 101516Z 22005KT 18/13 A2983 RMK A01 T01770127  RH  072%=      5-min Rain = 0
KCH1 101517Z 23005KT 18/13 A2983 RMK A01 T01760128  RH  073%=      5-min Rain = 0
KCH1 101518Z 22005KT 18/13 A2983 RMK A01 T01760128  RH  073%=      5-min Rain = 0
KCH1 101519Z 22006KT 18/13 A2983 RMK A01 T01770129  RH  073%=      5-min Rain = 0
KCH1 101520Z 22006KT 18/13 A2983 RMK A01 T01780129  RH  073%=      5-min Rain = 0
KCH1 101521Z 23005KT 18/13 A2983 RMK A01 T01780129  RH  073%=      5-min Rain = 0
KCH1 101522Z 21003KT 18/13 A2983 RMK A01 T01780129  RH  073%=      5-min Rain = 0
KCH1 101523Z 22004KT 18/13 A2983 RMK A01 T01790130  RH  073%=      5-min Rain = 0
KCH1 101524Z 22005KT 18/13 A2982 RMK A01 T01810131  RH  072%=      5-min Rain = 0
KCH1 101525Z 22003KT 18/13 A2982 RMK A01 T01820129  RH  071%=      5-min Rain = 0
KCH1 101526Z 23002KT 18/13 A2982 RMK A01 T01810129  RH  071%=      5-min Rain = 0
KCH1 101527Z 20005KT 18/13 A2982 RMK A01 T01820129  RH  071%=      5-min Rain = 0
KCH1 101528Z 22005KT 18/13 A2982 RMK A01 T01820127  RH  070%=      5-min Rain = 0
KCH1 101529Z 21004KT 18/13 A2982 RMK A01 T01840130  RH  071%=      5-min Rain = 0
KCH1 101530Z 21004KT 19/13 A2982 RMK A01 T01870130  RH  070%=      5-min Rain = 0
KCH1 101531Z 22004KT 19/13 A2982 RMK A01 T01870128  RH  069%=      5-min Rain = 0
KCH1 101532Z 22005KT 19/13 A2982 RMK A01 T01870127  RH  068%=      5-min Rain = 0
KCH1 101533Z 22005KT 19/13 A2982 RMK A01 T01860126  RH  068%=      5-min Rain = 0
KCH1 101534Z 22005KT 19/13 A2982 RMK A01 T01860126  RH  068%=      5-min Rain = 0
KCH1 101535Z 23005KT 19/13 A2982 RMK A01 T01850127  RH  069%=      5-min Rain = 0
KCH1 101536Z 22005KT 19/13 A2982 RMK A01 T01860126  RH  068%=      5-min Rain = 0
KCH1 101537Z 21006KT 19/13 A2982 RMK A01 T01860126  RH  068%=      5-min Rain = 0
KCH1 101538Z 22006KT 19/13 A2982 RMK A01 T01850126  RH  068%=      5-min Rain = 0
KCH1 101539Z 23006KT 19/13 A2982 RMK A01 T01850126  RH  068%=      5-min Rain = 0
KCH1 101540Z 21006KT 19/13 A2982 RMK A01 T01860127  RH  068%=      5-min Rain = 0
KCH1 101541Z 22005KT 19/13 A2982 RMK A01 T01870128  RH  068%=      5-min Rain = 0
KCH1 101542Z 21005KT 19/13 A2982 RMK A01 T01870128  RH  068%=      5-min Rain = 0
KCH1 101543Z 22006KT 19/13 A2982 RMK A01 T01870129  RH  069%=      5-min Rain = 0
KCH1 101544Z 23005KT 19/13 A2982 RMK A01 T01870127  RH  068%=      5-min Rain = 0
KCH1 101545Z 23008KT 19/13 A2983 RMK A01 T01890128  RH  068%=      5-min Rain = 0
KCH1 101546Z 22007KT 19/13 A2983 RMK A01 T01900127  RH  067%=      5-min Rain = 0
KCH1 101547Z 21008KT 19/13 A2983 RMK A01 T01900127  RH  067%=      5-min Rain = 0
KCH1 101548Z 22008KT 19/13 A2983 RMK A01 T01900126  RH  066%=      5-min Rain = 0
KCH1 101549Z 23006KT 19/13 A2983 RMK A01 T01900125  RH  066%=      5-min Rain = 0
KCH1 101550Z 23007G13KT 19/12 A2983 RMK A01 T01910124  RH  065%=      5-min Rain = 0
KCH1 101551Z 24008KT 19/12 A2983 RMK A01 T01930120  RH  063%=      5-min Rain = 0
KCH1 101552Z 24009KT 19/12 A2983 RMK A01 T01940115  RH  060%=      5-min Rain = 0
KCH1 101553Z 23011KT 20/11 A2983 RMK A01 T01950111  RH  058%=      5-min Rain = 0
KCH1 101554Z 24011KT 19/11 A2983 RMK A01 T01940111  RH  059%=      5-min Rain = 0
KCH1 101555Z 24008KT 19/11 A2983 RMK A01 T01930110  RH  059%=      5-min Rain = 0
KCH1 101556Z 23009G14KT 19/11 A2983 RMK A01 T01930108  RH  058%=      5-min Rain = 0
KCH1 101557Z 24010KT 19/11 A2983 RMK A01 T01930108  RH  058%=      5-min Rain = 0
KCH1 101558Z 24011KT 19/11 A2983 RMK A01 T01930108  RH  058%=      5-min Rain = 0
KCH1 101559Z 24010KT 19/11 A2983 RMK A01 T01920109  RH  059%=      5-min Rain = 0
KCH1 101600Z 23009KT 19/11 A2983 RMK A01 T01910110  RH  059%=      5-min Rain = 0
KCH1 101601Z 23009KT 19/11 A2982 RMK A01 T01910111  RH  060%=      5-min Rain = 0
KCH1 101602Z 23008KT 19/11 A2982 RMK A01 T01910110  RH  059%=      5-min Rain = 0
KCH1 101603Z 25008KT 19/11 A2982 RMK A01 T01920110  RH  059%=      5-min Rain = 0
KCH1 101604Z 24007KT 19/11 A2982 RMK A01 T01920109  RH  059%=      5-min Rain = 0
KCH1 101605Z 25007KT 19/11 A2982 RMK A01 T01930110  RH  059%=      5-min Rain = 0
KCH1 101606Z 25007KT 19/11 A2982 RMK A01 T01940111  RH  059%=      5-min Rain = 0
KCH1 101607Z 25008KT 20/11 A2982 RMK A01 T01950111  RH  058%=      5-min Rain = 0
KCH1 101608Z 26007KT 20/11 A2982 RMK A01 T01950111  RH  058%=      5-min Rain = 0
KCH1 101609Z 24005KT 20/11 A2982 RMK A01 T01960113  RH  059%=      5-min Rain = 0
KCH1 101610Z 23009KT 20/11 A2982 RMK A01 T01980112  RH  058%=      5-min Rain = 0
KCH1 101611Z 23009KT 20/11 A2982 RMK A01 T01990109  RH  056%=      5-min Rain = 0
KCH1 101612Z 24005KT 20/11 A2982 RMK A01 T01970110  RH  057%=      5-min Rain = 0
KCH1 101613Z 24008KT 20/11 A2982 RMK A01 T01980110  RH  057%=      5-min Rain = 0
KCH1 101614Z 23008KT 20/11 A2982 RMK A01 T01990108  RH  056%=      5-min Rain = 0
KCH1 101615Z 23009KT 20/11 A2982 RMK A01 T01990108  RH  056%=      5-min Rain = 0
KCH1 101616Z 22010KT 20/11 A2982 RMK A01 T01990107  RH  055%=      5-min Rain = 0
KCH1 101617Z 22010KT 20/11 A2982 RMK A01 T01990106  RH  055%=      5-min Rain = 0
KCH1 101618Z 23008KT 20/11 A2982 RMK A01 T01980106  RH  055%=      5-min Rain = 0
KCH1 101619Z 22009KT 20/11 A2982 RMK A01 T01990107  RH  055%=      5-min Rain = 0
KCH1 101620Z 22009KT 20/11 A2982 RMK A01 T02000107  RH  055%=      5-min Rain = 0
KCH1 101621Z 23007KT 20/11 A2982 RMK A01 T02010108  RH  055%=      5-min Rain = 0
KCH1 101622Z 24010KT 20/11 A2982 RMK A01 T02020107  RH  054%=      5-min Rain = 0
KCH1 101623Z 24009KT 20/11 A2982 RMK A01 T02010106  RH  054%=      5-min Rain = 0
KCH1 101624Z 24010KT 20/11 A2982 RMK A01 T01990105  RH  054%=      5-min Rain = 0
KCH1 101625Z 24009KT 20/11 A2982 RMK A01 T01990105  RH  054%=      5-min Rain = 0
KCH1 101626Z 25008KT 20/10 A2982 RMK A01 T01990103  RH  054%=      5-min Rain = 0
KCH1 101627Z 26008KT 20/10 A2982 RMK A01 T01990104  RH  054%=      5-min Rain = 0
KCH1 101628Z 24007KT 20/10 A2981 RMK A01 T01990103  RH  054%=      5-min Rain = 0
KCH1 101629Z 25006KT 20/10 A2982 RMK A01 T01990104  RH  054%=      5-min Rain = 0
KCH1 101630Z 25005KT 20/11 A2982 RMK A01 T02000105  RH  054%=      5-min Rain = 0
KCH1 101631Z 24005KT 20/11 A2982 RMK A01 T02020106  RH  054%=      5-min Rain = 0
KCH1 101632Z 24006KT 20/11 A2982 RMK A01 T02040105  RH  053%=      5-min Rain = 0
KCH1 101633Z 24004KT 21/10 A2982 RMK A01 T02060104  RH  052%=      5-min Rain = 0
KCH1 101634Z 23005KT 21/10 A2982 RMK A01 T02070102  RH  051%=      5-min Rain = 0
KCH1 101635Z 22006KT 21/10 A2982 RMK A01 T02070101  RH  051%=      5-min Rain = 0
KCH1 101636Z 24006KT 21/10 A2982 RMK A01 T02080101  RH  050%=      5-min Rain = 0
KCH1 101637Z 24009KT 21/10 A2982 RMK A01 T02090099  RH  049%=      5-min Rain = 0
KCH1 101638Z 24005KT 21/10 A2982 RMK A01 T02090099  RH  049%=      5-min Rain = 0
KCH1 101639Z 23008KT 21/10 A2982 RMK A01 T02090098  RH  049%=      5-min Rain = 0
KCH1 101640Z 23008KT 21/10 A2982 RMK A01 T02090096  RH  048%=      5-min Rain = 0
KCH1 101641Z 25008KT 21/10 A2982 RMK A01 T02090096  RH  048%=      5-min Rain = 0
KCH1 101642Z 25005KT 21/10 A2982 RMK A01 T02080097  RH  049%=      5-min Rain = 0
KCH1 101643Z 25004KT 21/10 A2982 RMK A01 T02090098  RH  049%=      5-min Rain = 0
KCH1 101644Z 26008KT 21/10 A2982 RMK A01 T02100095  RH  048%=      5-min Rain = 0
KCH1 101645Z 25005KT 21/10 A2982 RMK A01 T02100096  RH  048%=      5-min Rain = 0
KCH1 101646Z 24006KT 21/10 A2981 RMK A01 T02100096  RH  048%=      5-min Rain = 0
KCH1 101647Z 26008KT 21/09 A2981 RMK A01 T02100092  RH  047%=      5-min Rain = 0
KCH1 101648Z 26010KT 21/09 A2981 RMK A01 T02100089  RH  046%=      5-min Rain = 0
KCH1 101649Z 27008KT 21/09 A2981 RMK A01 T02100085  RH  045%=      5-min Rain = 0
KCH1 101650Z 25006KT 21/09 A2981 RMK A01 T02090085  RH  045%=      5-min Rain = 0
KCH1 101651Z 23005KT 21/09 A2981 RMK A01 T02090088  RH  046%=      5-min Rain = 0
KCH1 101652Z 24006KT 21/09 A2981 RMK A01 T02100089  RH  046%=      5-min Rain = 0
KCH1 101653Z 23007KT 21/09 A2981 RMK A01 T02100086  RH  045%=      5-min Rain = 0
KCH1 101654Z 23004KT 21/08 A2981 RMK A01 T02110084  RH  044%=      5-min Rain = 0
KCH1 101655Z 26006KT 21/09 A2981 RMK A01 T02130086  RH  044%=      5-min Rain = 0
KCH1 101656Z 26008KT 22/08 A2981 RMK A01 T02160083  RH  042%=      5-min Rain = 0
KCH1 101657Z 26007KT 22/08 A2981 RMK A01 T02170080  RH  041%=      5-min Rain = 0
KCH1 101658Z 27005KT 22/08 A2981 RMK A01 T02170079  RH  041%=      5-min Rain = 0
KCH1 101659Z 26006KT 22/08 A2981 RMK A01 T02170080  RH  041%=      5-min Rain = 0
KCH1 101700Z 24004KT 22/08 A2981 RMK A01 T02180083  RH  042%=      5-min Rain = 0
KCH1 101701Z 22006KT 22/08 A2981 RMK A01 T02190084  RH  042%=      5-min Rain = 0
KCH1 101702Z 22006KT 22/09 A2981 RMK A01 T02190086  RH  042%=      5-min Rain = 0
KCH1 101703Z 24006KT 22/09 A2981 RMK A01 T02200086  RH  042%=      5-min Rain = 0
KCH1 101704Z 26009KT 22/08 A2981 RMK A01 T02210080  RH  040%=      5-min Rain = 0
KCH1 101705Z 26007KT 22/07 A2981 RMK A01 T02210074  RH  039%=      5-min Rain = 0
KCH1 101706Z 26007KT 22/08 A2981 RMK A01 T02200077  RH  040%=      5-min Rain = 0
KCH1 101707Z 26006KT 22/08 A2981 RMK A01 T02210078  RH  040%=      5-min Rain = 0
KCH1 101708Z 25006KT 22/08 A2981 RMK A01 T02230077  RH  039%=      5-min Rain = 0
KCH1 101709Z 26005KT 23/08 A2981 RMK A01 T02250080  RH  039%=      5-min Rain = 0
KCH1 101710Z 28006KT 23/08 A2981 RMK A01 T02260078  RH  038%=      5-min Rain = 0
KCH1 101711Z 27007KT 23/08 A2981 RMK A01 T02250081  RH  040%=      5-min Rain = 0
KCH1 101712Z 27007KT 23/08 A2981 RMK A01 T02260077  RH  038%=      5-min Rain = 0
KCH1 101713Z 26007KT 23/07 A2981 RMK A01 T02270073  RH  037%=      5-min Rain = 0
KCH1 101714Z 27008KT 23/08 A2981 RMK A01 T02280075  RH  037%=      5-min Rain = 0
KCH1 101715Z 24008KT 23/07 A2981 RMK A01 T02310073  RH  036%=      5-min Rain = 0
KCH1 101716Z 25008KT 23/07 A2981 RMK A01 T02320068  RH  035%=      5-min Rain = 0
KCH1 101717Z 27009KT 23/07 A2981 RMK A01 T02320069  RH  035%=      5-min Rain = 0
KCH1 101718Z 28008KT 23/07 A2981 RMK A01 T02300068  RH  035%=      5-min Rain = 0
KCH1 101719Z 27008KT 23/07 A298 RMK A01 T02290069  RH  036%=      5-min Rain = 0
KCH1 101720Z 29005KT 23/07 A2981 RMK A01 T02310069  RH  035%=      5-min Rain = 0
KCH1 101721Z 28006KT 23/07 A2981 RMK A01 T02310072  RH  036%=      5-min Rain = 0
KCH1 101722Z 27008KT 23/08 A2981 RMK A01 T02340076  RH  036%=      5-min Rain = 0
KCH1 101723Z 25008KT 24/07 A2981 RMK A01 T02350072  RH  035%=      5-min Rain = 0
KCH1 101724Z 24011KT 24/07 A2981 RMK A01 T02350065  RH  033%=      5-min Rain = 0
KCH1 101725Z 24009KT 23/06 A2981 RMK A01 T02330062  RH  033%=      5-min Rain = 0
KCH1 101726Z 23008KT 23/07 A2981 RMK A01 T02320065  RH  034%=      5-min Rain = 0
KCH1 101727Z 23009KT 23/06 A2981 RMK A01 T02340062  RH  033%=      5-min Rain = 0
KCH1 101728Z 23007KT 23/06 A2981 RMK A01 T02340062  RH  033%=      5-min Rain = 0
KCH1 101729Z 25009KT 23/06 A2981 RMK A01 T02340064  RH  033%=      5-min Rain = 0
KCH1 101730Z 25009KT 24/07 A298 RMK A01 T02350065  RH  033%=      5-min Rain = 0
KCH1 101731Z 24008KT 24/06 A298 RMK A01 T02360061  RH  032%=      5-min Rain = 0
KCH1 101732Z 23009KT 24/06 A298 RMK A01 T02350061  RH  033%=      5-min Rain = 0
KCH1 101733Z 22009KT 24/06 A298 RMK A01 T02360063  RH  033%=      5-min Rain = 0
KCH1 101734Z 25005KT 24/06 A298 RMK A01 T02360064  RH  033%=      5-min Rain = 0
KCH1 101735Z 24007KT 24/06 A298 RMK A01 T02360064  RH  033%=      5-min Rain = 0
KCH1 101736Z 25006KT 24/07 A298 RMK A01 T02370065  RH  033%=      5-min Rain = 0
KCH1 101737Z 26009KT 24/07 A298 RMK A01 T02380067  RH  033%=      5-min Rain = 0
KCH1 101738Z 25007KT 24/06 A298 RMK A01 T02380064  RH  033%=      5-min Rain = 0
KCH1 101739Z 26008KT 24/06 A298 RMK A01 T02370064  RH  033%=      5-min Rain = 0
KCH1 101740Z 26008KT 24/06 A298 RMK A01 T02360063  RH  033%=      5-min Rain = 0
KCH1 101741Z 25007KT 24/06 A2981 RMK A01 T02360062  RH  032%=      5-min Rain = 0
KCH1 101742Z 25008KT 24/06 A2981 RMK A01 T02390063  RH  032%=      5-min Rain = 0
KCH1 101743Z 28008KT 24/06 A2981 RMK A01 T02400063  RH  032%=      5-min Rain = 0
KCH1 101744Z 27008KT 24/06 A2981 RMK A01 T02410061  RH  031%=      5-min Rain = 0
KCH1 101745Z 25009KT 24/06 A2981 RMK A01 T02410059  RH  031%=      5-min Rain = 0
KCH1 101746Z 26007KT 24/06 A2981 RMK A01 T02390061  RH  032%=      5-min Rain = 0
KCH1 101747Z 28009KT 24/06 A2981 RMK A01 T02410061  RH  031%=      5-min Rain = 0
KCH1 101748Z 28010KT 24/06 A298 RMK A01 T02430060  RH  031%=      5-min Rain = 0
KCH1 101749Z 26009KT 24/06 A298 RMK A01 T02440060  RH  030%=      5-min Rain = 0
KCH1 101750Z 25008KT 25/06 A298 RMK A01 T02450057  RH  030%=      5-min Rain = 0
KCH1 101751Z 24008KT 25/06 A298 RMK A01 T02450058  RH  030%=      5-min Rain = 0
KCH1 101752Z 26009KT 25/06 A298 RMK A01 T02450060  RH  030%=      5-min Rain = 0
KCH1 101753Z 26010KT 25/05 A298 RMK A01 T02480053  RH  029%=      5-min Rain = 0
KCH1 101754Z 27009KT 25/05 A298 RMK A01 T02480053  RH  028%=      5-min Rain = 0
KCH1 101755Z 27010KT 25/05 A298 RMK A01 T02480051  RH  028%=      5-min Rain = 0
KCH1 101756Z 26009KT 25/05 A298 RMK A01 T02500054  RH  028%=      5-min Rain = 0
KCH1 101757Z 28008KT 25/05 A298 RMK A01 T02540053  RH  027%=      5-min Rain = 0
KCH1 101758Z 26010KT 26/06 A298 RMK A01 T02560055  RH  027%=      5-min Rain = 0
KCH1 101759Z 26008KT 26/05 A298 RMK A01 T02570050  RH  027%=      5-min Rain = 0
KCH1 101800Z 26007KT 26/05 A298 RMK A01 T02550054  RH  027%=      5-min Rain = 0
KCH1 101801Z 26009KT 26/05 A298 RMK A01 T02550053  RH  027%=      5-min Rain = 0
KCH1 101802Z 25008KT 26/05 A298 RMK A01 T02550054  RH  028%=      5-min Rain = 0
KCH1 101803Z 26007KT 25/06 A298 RMK A01 T02530055  RH  028%=      5-min Rain = 0
KCH1 101804Z 26007KT 25/06 A298 RMK A01 T02540057  RH  028%=      5-min Rain = 0
KCH1 101805Z 28009KT 26/05 A298 RMK A01 T02560052  RH  027%=      5-min Rain = 0
KCH1 101806Z 27009KT 25/05 A298 RMK A01 T02540048  RH  026%=      5-min Rain = 0
KCH1 101807Z 26010G15KT 25/05 A298 RMK A01 T02530048  RH  027%=      5-min Rain = 0
KCH1 101808Z 26010KT 25/05 A298 RMK A01 T02530046  RH  026%=      5-min Rain = 0
KCH1 101809Z 26011KT 25/05 A298 RMK A01 T02540047  RH  026%=      5-min Rain = 0
KCH1 101810Z 26010KT 25/05 A298 RMK A01 T02540045  RH  026%=      5-min Rain = 0
KCH1 101811Z 26011G16KT 26/05 A298 RMK A01 T02550050  RH  027%=      5-min Rain = 0
KCH1 101812Z 27011KT 26/05 A298 RMK A01 T02550049  RH  027%=      5-min Rain = 0
KCH1 101813Z 26010KT 26/05 A298 RMK A01 T02550049  RH  027%=      5-min Rain = 0
KCH1 101814Z 26010G15KT 25/05 A298 RMK A01 T02540049  RH  027%=      5-min Rain = 0
KCH1 101815Z 26012G17KT 26/05 A298 RMK A01 T02550050  RH  027%=      5-min Rain = 0
KCH1 101816Z 27011KT 26/05 A298 RMK A01 T02550049  RH  027%=      5-min Rain = 0
KCH1 101817Z 27008KT 25/05 A298 RMK A01 T02530052  RH  027%=      5-min Rain = 0
KCH1 101818Z 27011KT 25/05 A298 RMK A01 T02530050  RH  027%=      5-min Rain = 0
KCH1 101819Z 27012KT 25/05 A2979 RMK A01 T02530048  RH  027%=      5-min Rain = 0
KCH1 101820Z 26010KT 25/05 A298 RMK A01 T02540049  RH  027%=      5-min Rain = 0
KCH1 101821Z 25010KT 26/05 A298 RMK A01 T02570054  RH  027%=      5-min Rain = 0
KCH1 101822Z 25009KT 26/05 A298 RMK A01 T02590050  RH  026%=      5-min Rain = 0
KCH1 101823Z 24007KT 26/05 A2979 RMK A01 T02590052  RH  026%=      5-min Rain = 0
KCH1 101824Z 25007KT 26/06 A2979 RMK A01 T02600055  RH  027%=      5-min Rain = 0
KCH1 101825Z 28010KT 26/05 A2979 RMK A01 T02620047  RH  025%=      5-min Rain = 0
KCH1 101826Z 27010KT 26/04 A2979 RMK A01 T02630043  RH  024%=      5-min Rain = 0
KCH1 101827Z 24007KT 26/05 A2979 RMK A01 T02640051  RH  026%=      5-min Rain = 0
KCH1 101828Z 25007KT 27/05 A2979 RMK A01 T02650053  RH  026%=      5-min Rain = 0
KCH1 101829Z 25007KT 27/05 A2979 RMK A01 T02680054  RH  026%=      5-min Rain = 0
KCH1 101830Z 28008KT 27/05 A2979 RMK A01 T02680045  RH  024%=      5-min Rain = 0
KCH1 101831Z 29009KT 27/04 A2979 RMK A01 T02680042  RH  023%=      5-min Rain = 0
KCH1 101832Z 30010KT 27/04 A2979 RMK A01 T02680041  RH  023%=      5-min Rain = 0
KCH1 101833Z 30009KT 27/04 A2979 RMK A01 T02680042  RH  023%=      5-min Rain = 0
KCH1 101834Z 30009KT 27/04 A2979 RMK A01 T02680041  RH  023%=      5-min Rain = 0
KCH1 101835Z 28008KT 27/04 A2979 RMK A01 T02680041  RH  023%=      5-min Rain = 0
KCH1 101836Z 28008KT 27/04 A2979 RMK A01 T02690043  RH  023%=      5-min Rain = 0
KCH1 101837Z 26008KT 27/05 A2979 RMK A01 T02690046  RH  024%=      5-min Rain = 0
KCH1 101838Z 27008KT 27/05 A2979 RMK A01 T02710046  RH  024%=      5-min Rain = 0
KCH1 101839Z 27011KT 27/04 A2979 RMK A01 T02740044  RH  023%=      5-min Rain = 0
KCH1 101840Z 26009KT 27/04 A2979 RMK A01 T02740040  RH  022%=      5-min Rain = 0
KCH1 101841Z 24008KT 27/04 A2979 RMK A01 T02730043  RH  023%=      5-min Rain = 0
KCH1 101842Z 23008G13KT 28/05 A2978 RMK A01 T02750047  RH  023%=      5-min Rain = 0
KCH1 101843Z 23009KT 28/05 A2978 RMK A01 T02760045  RH  023%=      5-min Rain = 0
KCH1 101844Z 26008KT 28/04 A2978 RMK A01 T02770044  RH  023%=      5-min Rain = 0
KCH1 101845Z 24008KT 28/04 A2978 RMK A01 T02770043  RH  022%=      5-min Rain = 0
KCH1 101846Z 23008G13KT 28/04 A2978 RMK A01 T02760041  RH  022%=      5-min Rain = 0
KCH1 101847Z 24008G13KT 28/04 A2978 RMK A01 T02760042  RH  022%=      5-min Rain = 0
KCH1 101848Z 25010KT 28/04 A2978 RMK A01 T02760039  RH  022%=      5-min Rain = 0
KCH1 101849Z 25006KT 27/04 A2978 RMK A01 T02740038  RH  022%=      5-min Rain = 0
KCH1 101850Z 22004KT 27/04 A2978 RMK A01 T02730042  RH  023%=      5-min Rain = 0
KCH1 101851Z 20003KT 28/04 A2978 RMK A01 T02750042  RH  022%=      5-min Rain = 0
KCH1 101852Z 25002KT 28/04 A2978 RMK A01 T02770037  RH  021%=      5-min Rain = 0
KCH1 101853Z 29004KT 28/04 A2978 RMK A01 T02770037  RH  021%=      5-min Rain = 0
KCH1 101854Z 29007KT 28/03 A2978 RMK A01 T02770030  RH  020%=      5-min Rain = 0
KCH1 101855Z 31007KT 27/03 A2978 RMK A01 T02740028  RH  020%=      5-min Rain = 0
KCH1 101856Z 30009KT 27/03 A2978 RMK A01 T02740029  RH  021%=      5-min Rain = 0
KCH1 101857Z 28011KT 28/03 A2977 RMK A01 T02760031  RH  021%=      5-min Rain = 0
KCH1 101858Z 28009KT 28/03 A2977 RMK A01 T02790027  RH  020%=      5-min Rain = 0
KCH1 101859Z 28010KT 28/02 A2977 RMK A01 T02790015  RH  018%=      5-min Rain = 0
KCH1 101900Z 29008KT 28/01 A2977 RMK A01 T02770014  RH  018%=      5-min Rain = 0
KCH1 101901Z 28007KT 28/02 A2977 RMK A01 T02780021  RH  019%=      5-min Rain = 0
KCH1 101902Z 28010KT 28/02 A2977 RMK A01 T02820023  RH  019%=      5-min Rain = 0
KCH1 101903Z 29007KT 28/02 A2977 RMK A01 T02840021  RH  018%=      5-min Rain = 0
KCH1 101904Z 29007KT 28/02 A2977 RMK A01 T02840019  RH  018%=      5-min Rain = 0
KCH1 101905Z 27007KT 28/02 A2977 RMK A01 T02830020  RH  018%=      5-min Rain = 0
KCH1 101906Z 28009KT 28/02 A2977 RMK A01 T02840020  RH  018%=      5-min Rain = 0
KCH1 101907Z 26009KT 29/02 A2977 RMK A01 T02850020  RH  018%=      5-min Rain = 0
KCH1 101908Z 27010KT 29/02 A2977 RMK A01 T02850017  RH  018%=      5-min Rain = 0
KCH1 101909Z 29009KT 28/02 A2977 RMK A01 T02820019  RH  018%=      5-min Rain = 0
KCH1 101910Z 31007KT 28/02 A2977 RMK A01 T02810018  RH  018%=      5-min Rain = 0
KCH1 101911Z 27007KT 28/02 A2976 RMK A01 T02810021  RH  019%=      5-min Rain = 0
KCH1 101912Z 27007KT 28/02 A2976 RMK A01 T02830018  RH  018%=      5-min Rain = 0
KCH1 101913Z 27007KT 28/02 A2976 RMK A01 T02840017  RH  018%=      5-min Rain = 0
KCH1 101914Z 31011KT 28/02 A2976 RMK A01 T02830017  RH  018%=      5-min Rain = 0
KCH1 101915Z 28008KT 28/02 A2976 RMK A01 T02840024  RH  019%=      5-min Rain = 0
KCH1 101916Z 29007KT 29/02 A2976 RMK A01 T02870024  RH  018%=      5-min Rain = 0
KCH1 101917Z 27005KT 29/03 A2976 RMK A01 T02890026  RH  019%=      5-min Rain = 0
KCH1 101918Z 27005KT 29/03 A2976 RMK A01 T02910028  RH  019%=      5-min Rain = 0
KCH1 101919Z 29007KT 29/03 A2976 RMK A01 T02940027  RH  018%=      5-min Rain = 0
KCH1 101920Z 29008KT 29/02 A2976 RMK A01 T02910016  RH  017%=      5-min Rain = 0
KCH1 101921Z 29006KT 29/01 A2976 RMK A01 T02850013  RH  017%=      5-min Rain = 0
KCH1 101922Z 29004KT 28/01 A2976 RMK A01 T02820014  RH  018%=      5-min Rain = 0
KCH1 101923Z 27007KT 28/01 A2976 RMK A01 T02810014  RH  018%=      5-min Rain = 0
KCH1 101924Z 27007KT 28/02 A2976 RMK A01 T02800015  RH  018%=      5-min Rain = 0
KCH1 101925Z 25009KT 28/02 A2976 RMK A01 T02790020  RH  019%=      5-min Rain = 0
KCH1 101926Z 26009G14KT 28/02 A2975 RMK A01 T02820023  RH  019%=      5-min Rain = 0
KCH1 101927Z 27009KT 29/03 A2975 RMK A01 T02860025  RH  019%=      5-min Rain = 0
KCH1 101928Z 28011KT 29/02 A2975 RMK A01 T02880023  RH  018%=      5-min Rain = 0
KCH1 101929Z 30007KT 29/02 A2975 RMK A01 T02870020  RH  018%=      5-min Rain = 0
KCH1 101930Z 29008KT 29/02 A2975 RMK A01 T02850021  RH  018%=      5-min Rain = 0
KCH1 101931Z 29006KT 29/02 A2975 RMK A01 T02850019  RH  018%=      5-min Rain = 0
KCH1 101932Z 27008KT 28/02 A2975 RMK A01 T02840022  RH  019%=      5-min Rain = 0
KCH1 101933Z 27007KT 29/02 A2975 RMK A01 T02850020  RH  018%=      5-min Rain = 0
KCH1 101934Z 28007KT 29/02 A2975 RMK A01 T02870018  RH  018%=      5-min Rain = 0
KCH1 101935Z 27006KT 29/02 A2975 RMK A01 T02860019  RH  018%=      5-min Rain = 0
KCH1 101936Z 30005KT 29/02 A2975 RMK A01 T02860018  RH  018%=      5-min Rain = 0
KCH1 101937Z 26008KT 29/02 A2975 RMK A01 T02860018  RH  018%=      5-min Rain = 0
KCH1 101938Z 27009KT 29/02 A2975 RMK A01 T02850018  RH  018%=      5-min Rain = 0
KCH1 101939Z 28008KT 29/02 A2975 RMK A01 T02850020  RH  018%=      5-min Rain = 0
KCH1 101940Z 28007KT 29/02 A2975 RMK A01 T02860020  RH  018%=      5-min Rain = 0
KCH1 101941Z 27008KT 29/02 A2975 RMK A01 T02870015  RH  017%=      5-min Rain = 0
KCH1 101942Z 27006KT 29/01 A2974 RMK A01 T02870011  RH  017%=      5-min Rain = 0
KCH1 101943Z 27006KT 29/01 A2974 RMK A01 T02850014  RH  017%=      5-min Rain = 0
KCH1 101944Z 25007KT 29/02 A2974 RMK A01 T02870015  RH  017%=      5-min Rain = 0
KCH1 101945Z 28003KT 29/02 A2974 RMK A01 T02890018  RH  017%=      5-min Rain = 0
KCH1 101946Z 30006KT 29/02 A2974 RMK A01 T02920016  RH  017%=      5-min Rain = 0
KCH1 101947Z 29006KT 29/02 A2974 RMK A01 T02930016  RH  017%=      5-min Rain = 0
KCH1 101948Z 29004KT 29/01 A2974 RMK A01 T02930009  RH  016%=      5-min Rain = 0
KCH1 101949Z 27005KT 29/01 A2974 RMK A01 T02910009  RH  016%=      5-min Rain = 0
KCH1 101950Z 27005KT 29/01 A2974 RMK A01 T02880011  RH  017%=      5-min Rain = 0
KCH1 101951Z 27005KT 29/01 A2974 RMK A01 T02910014  RH  017%=      5-min Rain = 0
KCH1 101952Z 27007KT 29/01 A2974 RMK A01 T02930008  RH  016%=      5-min Rain = 0
KCH1 101953Z 28008KT 29/01 A2974 RMK A01 T02920005  RH  016%=      5-min Rain = 0
KCH1 101954Z 29006KT 29/00 A2974 RMK A01 T029000-0  RH  015%=      5-min Rain = 0
KCH1 101955Z 28006KT 29/00 A2974 RMK A01 T02890002  RH  016%=      5-min Rain = 0
KCH1 101956Z 28004KT 29/M00 A2974 RMK A01 T02881001  RH  015%=      5-min Rain = 0
KCH1 101957Z 28005KT 29/00 A2974 RMK A01 T02870001  RH  016%=      5-min Rain = 0
KCH1 101958Z 28009KT 29/M01 A2974 RMK A01 T02891005  RH  015%=      5-min Rain = 0
KCH1 101959Z 29007KT 29/M01 A2974 RMK A01 T02911008  RH  014%=      5-min Rain = 0
KCH1 102000Z 30008KT 29/M01 A2974 RMK A01 T02931013  RH  014%=      5-min Rain = 0
KCH1 102001Z 30007KT 30/M01 A2973 RMK A01 T02951012  RH  014%=      5-min Rain = 0
KCH1 102002Z 31008KT 30/M02 A2973 RMK A01 T02971022  RH  012%=      5-min Rain = 0
KCH1 102003Z 31007KT 30/M02 A2973 RMK A01 T02971023  RH  012%=      5-min Rain = 0
KCH1 102004Z 31005KT 30/M03 A2973 RMK A01 T02961032  RH  012%=      5-min Rain = 0
KCH1 102005Z 32005KT 30/M03 A2973 RMK A01 T02951033  RH  012%=      5-min Rain = 0
KCH1 102006Z 30004KT 30/M03 A2973 RMK A01 T02951033  RH  012%=      5-min Rain = 0
KCH1 102007Z 28004KT 30/M03 A2973 RMK A01 T02961034  RH  011%=      5-min Rain = 0
KCH1 102008Z 31004KT 30/M03 A2973 RMK A01 T02961032  RH  012%=      5-min Rain = 0
KCH1 102009Z 26002KT 30/M03 A2973 RMK A01 T02961030  RH  012%=      5-min Rain = 0
KCH1 102010Z 34004KT 30/M03 A2973 RMK A01 T02971025  RH  012%=      5-min Rain = 0
KCH1 102011Z 31007KT 30/M02 A2973 RMK A01 T03021023  RH  012%=      5-min Rain = 0
KCH1 102012Z 31009KT 30/M03 A2973 RMK A01 T03041030  RH  011%=      5-min Rain = 0
KCH1 102013Z 31006KT 30/M03 A2973 RMK A01 T03031034  RH  011%=      5-min Rain = 0
KCH1 102014Z 31006KT 30/M03 A2973 RMK A01 T03021034  RH  011%=      5-min Rain = 0
KCH1 102015Z 29007KT 30/M04 A2973 RMK A01 T03031042  RH  010%=      5-min Rain = 0
KCH1 102016Z 31007KT 30/M05 A2973 RMK A01 T03021045  RH  010%=      5-min Rain = 0
KCH1 102017Z 28005KT 30/M04 A2973 RMK A01 T03011040  RH  011%=      5-min Rain = 0
KCH1 102018Z 27007KT 30/M04 A2973 RMK A01 T03011043  RH  010%=      5-min Rain = 0
KCH1 102019Z 26006KT 30/M05 A2973 RMK A01 T03011047  RH  010%=      5-min Rain = 0
KCH1 102020Z 28006KT 30/M04 A2973 RMK A01 T02991043  RH  011%=      5-min Rain = 0
KCH1 102021Z 32008KT 30/M04 A2973 RMK A01 T02991044  RH  010%=      5-min Rain = 0
KCH1 102022Z 32010KT 30/M04 A2973 RMK A01 T03001044  RH  010%=      5-min Rain = 0
KCH1 102023Z 30008KT 30/M04 A2973 RMK A01 T03001035  RH  011%=      5-min Rain = 0
KCH1 102024Z 32008KT 30/M04 A2973 RMK A01 T03031041  RH  011%=      5-min Rain = 0
KCH1 102025Z 32005KT 30/M05 A2973 RMK A01 T03031045  RH  010%=      5-min Rain = 0
KCH1 102026Z 32006KT 30/M05 A2973 RMK A01 T03021047  RH  010%=      5-min Rain = 0
KCH1 102027Z 31006KT 30/M05 A2973 RMK A01 T03001051  RH  010%=      5-min Rain = 0
KCH1 102028Z 33008KT 30/M05 A2972 RMK A01 T03001046  RH  010%=      5-min Rain = 0
KCH1 102029Z 33010KT 30/M04 A2972 RMK A01 T02991044  RH  010%=      5-min Rain = 0
KCH1 102030Z 33008KT 30/M04 A2972 RMK A01 T03001037  RH  011%=      5-min Rain = 0
KCH1 102031Z 32006KT 30/M04 A2972 RMK A01 T03041042  RH  010%=      5-min Rain = 0
KCH1 102032Z 31007KT 30/M05 A2972 RMK A01 T03041047  RH  010%=      5-min Rain = 0
KCH1 102033Z 32005KT 30/M05 A2972 RMK A01 T03001052  RH  010%=      5-min Rain = 0
KCH1 102034Z 33002KT 30/M05 A2972 RMK A01 T02991050  RH  010%=      5-min Rain = 0
KCH1 102035Z 29006G12KT 30/M04 A2972 RMK A01 T03001035  RH  011%=      5-min Rain = 0
KCH1 102036Z 28008KT 30/M04 A2972 RMK A01 T03031043  RH  010%=      5-min Rain = 0
KCH1 102037Z 30007KT 30/M05 A2972 RMK A01 T03041050  RH  010%=      5-min Rain = 0
KCH1 102038Z 31009KT 30/M05 A2972 RMK A01 T03021054  RH  010%=      5-min Rain = 0
KCH1 102039Z 32009KT 30/M05 A2972 RMK A01 T03011053  RH  010%=      5-min Rain = 0
KCH1 102040Z 31008KT 30/M05 A2972 RMK A01 T03031047  RH  010%=      5-min Rain = 0
KCH1 102041Z 30009KT 30/M06 A2972 RMK A01 T03031056  RH  009%=      5-min Rain = 0
KCH1 102042Z 30009KT 30/M06 A2972 RMK A01 T03001055  RH  010%=      5-min Rain = 0
KCH1 102043Z 29008KT 30/M05 A2972 RMK A01 T02991048  RH  010%=      5-min Rain = 0
KCH1 102044Z 29009KT 30/M05 A2972 RMK A01 T03011050  RH  010%=      5-min Rain = 0
KCH1 102045Z 28006KT 30/M06 A2972 RMK A01 T03021055  RH  009%=      5-min Rain = 0
KCH1 102046Z 29006KT 30/M05 A2972 RMK A01 T03011052  RH  010%=      5-min Rain = 0
KCH1 102047Z 28005KT 30/M05 A2971 RMK A01 T03021049  RH  010%=      5-min Rain = 0
KCH1 102048Z 31007KT 30/M05 A2971 RMK A01 T03031047  RH  010%=      5-min Rain = 0
KCH1 102049Z 33006KT 30/M04 A2971 RMK A01 T03031043  RH  010%=      5-min Rain = 0
KCH1 102050Z 31006KT 31/M04 A2971 RMK A01 T03061039  RH  010%=      5-min Rain = 0
KCH1 102051Z 30005KT 31/M04 A2971 RMK A01 T03091044  RH  010%=      5-min Rain = 0
KCH1 102052Z 32005KT 31/M05 A2971 RMK A01 T03091049  RH  010%=      5-min Rain = 0
KCH1 102053Z 33010KT 31/M05 A2971 RMK A01 T03081052  RH  009%=      5-min Rain = 0
KCH1 102054Z 32009KT 31/M05 A2971 RMK A01 T03071050  RH  010%=      5-min Rain = 0
KCH1 102055Z 32008KT 31/M05 A2971 RMK A01 T03061048  RH  010%=      5-min Rain = 0
KCH1 102056Z 33005KT 31/M05 A2971 RMK A01 T03051054  RH  009%=      5-min Rain = 0
KCH1 102057Z 32004KT 30/M05 A2971 RMK A01 T03021053  RH  010%=      5-min Rain = 0
KCH1 102058Z 32006KT 30/M05 A2971 RMK A01 T03011051  RH  010%=      5-min Rain = 0
KCH1 102059Z 32009KT 30/M05 A2971 RMK A01 T03011047  RH  010%=      5-min Rain = 0
KCH1 102100Z 31007KT 30/M05 A2971 RMK A01 T03021048  RH  010%=      5-min Rain = 0
KCH1 102101Z 31007KT 30/M05 A2971 RMK A01 T03031054  RH  009%=      5-min Rain = 0
KCH1 102102Z 30007KT 30/M05 A2971 RMK A01 T03031052  RH  010%=      5-min Rain = 0
KCH1 102103Z 29007KT 30/M04 A2971 RMK A01 T03041044  RH  010%=      5-min Rain = 0
KCH1 102104Z 29011KT 31/M05 A2971 RMK A01 T03071048  RH  010%=      5-min Rain = 0
KCH1 102105Z 30009KT 31/M05 A2971 RMK A01 T03051054  RH  009%=      5-min Rain = 0
KCH1 102106Z 29010KT 30/M05 A2971 RMK A01 T03031052  RH  010%=      5-min Rain = 0
KCH1 102107Z 28010KT 30/M06 A2971 RMK A01 T03031058  RH  009%=      5-min Rain = 0
KCH1 102108Z 28010KT 30/M06 A2971 RMK A01 T03031055  RH  009%=      5-min Rain = 0
KCH1 102109Z 29010KT 30/M06 A2971 RMK A01 T03031059  RH  009%=      5-min Rain = 0
KCH1 102110Z 27008KT 30/M06 A2971 RMK A01 T03031059  RH  009%=      5-min Rain = 0
KCH1 102111Z 31009KT 30/M06 A2971 RMK A01 T03021058  RH  009%=      5-min Rain = 0
KCH1 102112Z 30010KT 30/M05 A2971 RMK A01 T03041048  RH  010%=      5-min Rain = 0
KCH1 102113Z 31009KT 31/M06 A2971 RMK A01 T03051062  RH  009%=      5-min Rain = 0
KCH1 102114Z 32007KT 30/M06 A2971 RMK A01 T03031058  RH  009%=      5-min Rain = 0
KCH1 102115Z 32008KT 30/M06 A2971 RMK A01 T03041055  RH  009%=      5-min Rain = 0
KCH1 102116Z 31007KT 31/M06 A2971 RMK A01 T03051057  RH  009%=      5-min Rain = 0
KCH1 102117Z 31009KT 31/M06 A2971 RMK A01 T03061056  RH  009%=      5-min Rain = 0
KCH1 102118Z 32009KT 31/M06 A2971 RMK A01 T03051063  RH  009%=      5-min Rain = 0
KCH1 102119Z 32006KT 30/M06 A2971 RMK A01 T03041058  RH  009%=      5-min Rain = 0
KCH1 102120Z 31008KT 31/M06 A2971 RMK A01 T03061057  RH  009%=      5-min Rain = 0
KCH1 102121Z 31007KT 31/M06 A2971 RMK A01 T03061063  RH  009%=      5-min Rain = 0
KCH1 102122Z 30006KT 30/M07 A2971 RMK A01 T03041066  RH  009%=      5-min Rain = 0
KCH1 102123Z 31006KT 30/M06 A2971 RMK A01 T03041058  RH  009%=      5-min Rain = 0
KCH1 102124Z 31008KT 31/M06 A2971 RMK A01 T03051057  RH  009%=      5-min Rain = 0
KCH1 102125Z 28009KT 31/M06 A2971 RMK A01 T03061061  RH  009%=      5-min Rain = 0
KCH1 102126Z 29009KT 31/M06 A2971 RMK A01 T03051061  RH  009%=      5-min Rain = 0
KCH1 102127Z 29011KT 30/M06 A2971 RMK A01 T03041058  RH  009%=      5-min Rain = 0
KCH1 102128Z 27011KT 31/M06 A2971 RMK A01 T03051055  RH  009%=      5-min Rain = 0
KCH1 102129Z 27011KT 31/M06 A2971 RMK A01 T03061063  RH  009%=      5-min Rain = 0
KCH1 102130Z 26010KT 31/M07 A2971 RMK A01 T03051066  RH  009%=      5-min Rain = 0
KCH1 102131Z 26009KT 30/M07 A2971 RMK A01 T03041065  RH  009%=      5-min Rain = 0
KCH1 102132Z 26008KT 30/M07 A2971 RMK A01 T03041068  RH  008%=      5-min Rain = 0
KCH1 102133Z 27008KT 30/M07 A2971 RMK A01 T03041067  RH  009%=      5-min Rain = 0
KCH1 102134Z 28011KT 31/M06 A2971 RMK A01 T03051058  RH  009%=      5-min Rain = 0
KCH1 102135Z 28009KT 31/M07 A2971 RMK A01 T03061066  RH  009%=      5-min Rain = 0
KCH1 102136Z 30007KT 31/M06 A2971 RMK A01 T03061062  RH  009%=      5-min Rain = 0
KCH1 102137Z 30008KT 31/M06 A2971 RMK A01 T03081056  RH  009%=      5-min Rain = 0
KCH1 102138Z 29008KT 31/M05 A2971 RMK A01 T03081052  RH  009%=      5-min Rain = 0
KCH1 102139Z 31008KT 31/M06 A2971 RMK A01 T03071055  RH  009%=      5-min Rain = 0
KCH1 102140Z 29011KT 31/M06 A2971 RMK A01 T03061056  RH  009%=      5-min Rain = 0
KCH1 102141Z 31012G17KT 31/M06 A2971 RMK A01 T03061063  RH  009%=      5-min Rain = 0
KCH1 102142Z 31008KT 31/M07 A2971 RMK A01 T03051070  RH  008%=      5-min Rain = 0
KCH1 102143Z 29009KT 30/M06 A2971 RMK A01 T03041057  RH  009%=      5-min Rain = 0
KCH1 102144Z 29012KT 31/M06 A2971 RMK A01 T03061060  RH  009%=      5-min Rain = 0
KCH1 102145Z 29009KT 31/M06 A2971 RMK A01 T03051061  RH  009%=      5-min Rain = 0
KCH1 102146Z 27011G16KT 30/M06 A2971 RMK A01 T03041057  RH  009%=      5-min Rain = 0
KCH1 102147Z 27011G16KT 30/M06 A2971 RMK A01 T03041062  RH  009%=      5-min Rain = 0
KCH1 102148Z 27010KT 30/M07 A2971 RMK A01 T03031068  RH  009%=      5-min Rain = 0
KCH1 102149Z 26011KT 30/M06 A2971 RMK A01 T03021064  RH  009%=      5-min Rain = 0
KCH1 102150Z 25013KT 30/M07 A2971 RMK A01 T03021071  RH  008%=      5-min Rain = 0
KCH1 102151Z 25009KT 30/M07 A2971 RMK A01 T03021068  RH  009%=      5-min Rain = 0
KCH1 102152Z 25010KT 30/M07 A2971 RMK A01 T03021068  RH  009%=      5-min Rain = 0
KCH1 102153Z 25007KT 30/M07 A2971 RMK A01 T03031065  RH  009%=      5-min Rain = 0
KCH1 102154Z 25008KT 31/M07 A297 RMK A01 T03051068  RH  008%=      5-min Rain = 0
KCH1 102155Z 26007KT 31/M07 A297 RMK A01 T03051072  RH  008%=      5-min Rain = 0
KCH1 102156Z 25006KT 31/M07 A297 RMK A01 T03051071  RH  008%=      5-min Rain = 0
KCH1 102157Z 25005KT 31/M07 A297 RMK A01 T03051068  RH  008%=      5-min Rain = 0
KCH1 102158Z 24006KT 31/M07 A297 RMK A01 T03061069  RH  008%=      5-min Rain = 0
KCH1 102159Z 23006KT 31/M07 A297 RMK A01 T03061073  RH  008%=      5-min Rain = 0
KCH1 102200Z 24006KT 31/M07 A297 RMK A01 T03061068  RH  008%=      5-min Rain = 0
KCH1 102201Z 25006KT 31/M07 A297 RMK A01 T03071070  RH  008%=      5-min Rain = 0
KCH1 102202Z 24007KT 31/M07 A297 RMK A01 T03071071  RH  008%=      5-min Rain = 0
KCH1 102203Z 24004KT 31/M08 A297 RMK A01 T03071079  RH  008%=      5-min Rain = 0
KCH1 102204Z 27003KT 31/M09 A297 RMK A01 T03061085  RH  007%=      5-min Rain = 0
KCH1 102205Z 27006G13KT 31/M08 A2971 RMK A01 T03061075  RH  008%=      5-min Rain = 0
KCH1 102206Z 26014KT 31/M07 A297 RMK A01 T03061069  RH  008%=      5-min Rain = 0
KCH1 102207Z 27011KT 31/M07 A297 RMK A01 T03071067  RH  008%=      5-min Rain = 0
KCH1 102208Z 30010KT 31/M07 A297 RMK A01 T03061067  RH  008%=      5-min Rain = 0
KCH1 102209Z 30008KT 31/M07 A2971 RMK A01 T03071070  RH  008%=      5-min Rain = 0
KCH1 102210Z 30009KT 31/M08 A297 RMK A01 T03071076  RH  008%=      5-min Rain = 0
KCH1 102211Z 30006KT 31/M07 A297 RMK A01 T03071071  RH  008%=      5-min Rain = 0
KCH1 102212Z 30006KT 31/M07 A297 RMK A01 T03081074  RH  008%=      5-min Rain = 0
KCH1 102213Z 29009KT 31/M07 A297 RMK A01 T03081072  RH  008%=      5-min Rain = 0
KCH1 102214Z 30007KT 31/M07 A297 RMK A01 T03071074  RH  008%=      5-min Rain = 0
KCH1 102215Z 31007KT 31/M08 A297 RMK A01 T03071075  RH  008%=      5-min Rain = 0
KCH1 102216Z 31006KT 31/M08 A297 RMK A01 T03061076  RH  008%=      5-min Rain = 0
KCH1 102217Z 27004KT 31/M07 A297 RMK A01 T03061071  RH  008%=      5-min Rain = 0
KCH1 102218Z 28006KT 31/M08 A297 RMK A01 T03081076  RH  008%=      5-min Rain = 0
KCH1 102219Z 26007KT 31/M07 A297 RMK A01 T03071074  RH  008%=      5-min Rain = 0
KCH1 102220Z 27006KT 31/M07 A297 RMK A01 T03071069  RH  008%=      5-min Rain = 0
KCH1 102221Z 25005KT 31/M07 A297 RMK A01 T03081074  RH  008%=      5-min Rain = 0
KCH1 102222Z 25004KT 31/M07 A297 RMK A01 T03091074  RH  008%=      5-min Rain = 0
KCH1 102223Z 26004KT 31/M07 A297 RMK A01 T03091065  RH  008%=      5-min Rain = 0
KCH1 102224Z 24007KT 31/M07 A297 RMK A01 T03121072  RH  008%=      5-min Rain = 0
KCH1 102225Z 23007KT 31/M07 A297 RMK A01 T03121074  RH  008%=      5-min Rain = 0
KCH1 102226Z 26005KT 31/M07 A297 RMK A01 T03111072  RH  008%=      5-min Rain = 0
KCH1 102227Z 27005KT 31/M07 A297 RMK A01 T03111072  RH  008%=      5-min Rain = 0
KCH1 102228Z 30004KT 31/M08 A297 RMK A01 T03111075  RH  008%=      5-min Rain = 0
KCH1 102229Z 30004KT 31/M08 A2969 RMK A01 T03101076  RH  008%=      5-min Rain = 0
KCH1 102230Z 30003KT 31/M07 A2969 RMK A01 T03101074  RH  008%=      5-min Rain = 0
KCH1 102231Z 31004KT 31/M07 A2969 RMK A01 T03101071  RH  008%=      5-min Rain = 0
KCH1 102232Z 30003KT 31/M08 A2969 RMK A01 T03101079  RH  008%=      5-min Rain = 0
KCH1 102233Z 30007KT 31/M07 A297 RMK A01 T03101070  RH  008%=      5-min Rain = 0
KCH1 102234Z 31005KT 31/M07 A297 RMK A01 T03101072  RH  008%=      5-min Rain = 0
KCH1 102235Z 30008KT 31/M07 A297 RMK A01 T03101074  RH  008%=      5-min Rain = 0
KCH1 102236Z 30012KT 31/M07 A297 RMK A01 T03091074  RH  008%=      5-min Rain = 0
KCH1 102237Z 29007KT 31/M08 A297 RMK A01 T03081076  RH  008%=      5-min Rain = 0
KCH1 102238Z 27005KT 31/M08 A297 RMK A01 T03071081  RH  008%=      5-min Rain = 0
KCH1 102239Z 28005KT 31/M08 A297 RMK A01 T03071077  RH  008%=      5-min Rain = 0
KCH1 102240Z 29007KT 31/M07 A297 RMK A01 T03081069  RH  008%=      5-min Rain = 0
KCH1 102241Z 28007KT 31/M08 A297 RMK A01 T03091075  RH  008%=      5-min Rain = 0
KCH1 102242Z 26007KT 31/M08 A297 RMK A01 T03081079  RH  008%=      5-min Rain = 0
KCH1 102243Z 27006KT 31/M07 A297 RMK A01 T03081072  RH  008%=      5-min Rain = 0
KCH1 102244Z 25006KT 31/M07 A297 RMK A01 T03081072  RH  008%=      5-min Rain = 0
KCH1 102245Z 26006KT 31/M07 A2969 RMK A01 T03091071  RH  008%=      5-min Rain = 0
KCH1 102246Z 26005G13KT 31/M07 A2969 RMK A01 T03101070  RH  008%=      5-min Rain = 0
KCH1 102247Z 27010KT 31/M07 A2969 RMK A01 T03111074  RH  008%=      5-min Rain = 0
KCH1 102248Z 27011KT 31/M08 A2969 RMK A01 T03091079  RH  008%=      5-min Rain = 0
KCH1 102249Z 27010KT 31/M07 A2969 RMK A01 T03061074  RH  008%=      5-min Rain = 0
KCH1 102250Z 29010KT 30/M07 A297 RMK A01 T03041069  RH  008%=      5-min Rain = 0
KCH1 102251Z 29010KT 30/M07 A297 RMK A01 T03021070  RH  008%=      5-min Rain = 0
KCH1 102252Z 30007KT 30/M07 A297 RMK A01 T03001071  RH  008%=      5-min Rain = 0
KCH1 102253Z 31006KT 30/M06 A297 RMK A01 T03001063  RH  009%=      5-min Rain = 0
KCH1 102254Z 30007KT 30/M07 A2969 RMK A01 T02981068  RH  009%=      5-min Rain = 0
KCH1 102255Z 30004KT 30/M07 A2969 RMK A01 T02971066  RH  009%=      5-min Rain = 0
KCH1 102256Z 27007KT 30/M07 A297 RMK A01 T02971074  RH  008%=      5-min Rain = 0
KCH1 102257Z 26007KT 30/M08 A297 RMK A01 T02961081  RH  008%=      5-min Rain = 0
KCH1 102258Z 27008KT 30/M08 A2969 RMK A01 T02971077  RH  008%=      5-min Rain = 0
KCH1 102259Z 26010KT 30/M08 A2969 RMK A01 T02971084  RH  008%=      5-min Rain = 0
KCH1 102300Z 28007KT 30/M08 A297 RMK A01 T02961078  RH  008%=      5-min Rain = 0
KCH1 102301Z 28009KT 30/M08 A297 RMK A01 T02961075  RH  008%=      5-min Rain = 0
KCH1 102302Z 28010G15KT 30/M07 A297 RMK A01 T02951074  RH  008%=      5-min Rain = 0
KCH1 102303Z 27009KT 30/M08 A297 RMK A01 T02951076  RH  008%=      5-min Rain = 0
KCH1 102304Z 27007KT 30/M07 A297 RMK A01 T02951071  RH  009%=      5-min Rain = 0
KCH1 102305Z 28009KT 30/M07 A297 RMK A01 T02951068  RH  009%=      5-min Rain = 0
KCH1 102306Z 27009KT 29/M07 A297 RMK A01 T02941067  RH  009%=      5-min Rain = 0
KCH1 102307Z 28010KT 29/M06 A297 RMK A01 T02941063  RH  009%=      5-min Rain = 0
KCH1 102308Z 27007KT 29/M06 A297 RMK A01 T02931062  RH  009%=      5-min Rain = 0
KCH1 102309Z 28008KT 29/M07 A297 RMK A01 T02931065  RH  009%=      5-min Rain = 0
KCH1 102310Z 28008KT 29/M07 A297 RMK A01 T02931068  RH  009%=      5-min Rain = 0
KCH1 102311Z 27007KT 29/M07 A297 RMK A01 T02931067  RH  009%=      5-min Rain = 0
KCH1 102312Z 28006KT 29/M07 A297 RMK A01 T02921065  RH  009%=      5-min Rain = 0
KCH1 102313Z 28006KT 29/M06 A297 RMK A01 T02921061  RH  010%=      5-min Rain = 0
KCH1 102314Z 28005KT 29/M06 A297 RMK A01 T02911058  RH  010%=      5-min Rain = 0
KCH1 102315Z 27006KT 29/M06 A297 RMK A01 T02901057  RH  010%=      5-min Rain = 0
KCH1 102316Z 28006KT 29/M06 A297 RMK A01 T02901057  RH  010%=      5-min Rain = 0
KCH1 102317Z 28007KT 29/M06 A297 RMK A01 T02891057  RH  010%=      5-min Rain = 0
KCH1 102318Z 28009KT 29/M06 A297 RMK A01 T02891064  RH  010%=      5-min Rain = 0
KCH1 102319Z 27008KT 29/M07 A297 RMK A01 T02891070  RH  009%=      5-min Rain = 0
KCH1 102320Z 28009KT 29/M07 A297 RMK A01 T02901068  RH  009%=      5-min Rain = 0
KCH1 102321Z 28007KT 29/M07 A297 RMK A01 T02901066  RH  009%=      5-min Rain = 0
KCH1 102322Z 28008KT 29/M06 A297 RMK A01 T02901061  RH  010%=      5-min Rain = 0
KCH1 102323Z 28007KT 29/M06 A297 RMK A01 T02891056  RH  010%=      5-min Rain = 0
KCH1 102324Z 27008KT 29/M06 A297 RMK A01 T02881062  RH  010%=      5-min Rain = 0
KCH1 102325Z 27006KT 29/M06 A297 RMK A01 T02881063  RH  010%=      5-min Rain = 0
KCH1 102326Z 28007KT 29/M06 A297 RMK A01 T02881060  RH  010%=      5-min Rain = 0
KCH1 102327Z 28008KT 29/M06 A297 RMK A01 T02871063  RH  010%=      5-min Rain = 0
KCH1 102328Z 28006KT 29/M06 A2971 RMK A01 T02881060  RH  010%=      5-min Rain = 0
KCH1 102329Z 29007KT 29/M06 A2971 RMK A01 T02871058  RH  010%=      5-min Rain = 0
KCH1 102330Z 28008KT 29/M06 A2971 RMK A01 T02861055  RH  010%=      5-min Rain = 0
KCH1 102331Z 27007KT 29/M06 A2971 RMK A01 T02861056  RH  010%=      5-min Rain = 0
KCH1 102332Z 28008KT 29/M06 A2971 RMK A01 T02851060  RH  010%=      5-min Rain = 0
KCH1 102333Z 28008KT 29/M06 A2971 RMK A01 T02851058  RH  010%=      5-min Rain = 0
KCH1 102334Z 29008KT 29/M06 A2971 RMK A01 T02851057  RH  010%=      5-min Rain = 0
KCH1 102335Z 29008KT 29/M06 A2971 RMK A01 T02851057  RH  010%=      5-min Rain = 0
KCH1 102336Z 29007KT 29/M06 A2971 RMK A01 T02851056  RH  010%=      5-min Rain = 0
KCH1 102337Z 29008KT 29/M06 A2971 RMK A01 T02851057  RH  010%=      5-min Rain = 0
KCH1 102338Z 29007KT 29/M06 A2971 RMK A01 T02851057  RH  010%=      5-min Rain = 0
KCH1 102339Z 29006KT 29/M06 A2971 RMK A01 T02851055  RH  010%=      5-min Rain = 0
KCH1 102340Z 28007KT 28/M06 A2971 RMK A01 T02841056  RH  010%=      5-min Rain = 0
KCH1 102341Z 28007KT 28/M06 A2971 RMK A01 T02841057  RH  010%=      5-min Rain = 0
KCH1 102342Z 28007KT 28/M06 A2971 RMK A01 T02841058  RH  010%=      5-min Rain = 0
KCH1 102343Z 28007KT 29/M06 A2971 RMK A01 T02851059  RH  010%=      5-min Rain = 0
KCH1 102344Z 28006KT 28/M06 A2971 RMK A01 T02841057  RH  010%=      5-min Rain = 0
KCH1 102345Z 28006KT 28/M06 A2971 RMK A01 T02841057  RH  010%=      5-min Rain = 0
KCH1 102346Z 28005KT 28/M05 A2971 RMK A01 T02841054  RH  011%=      5-min Rain = 0
KCH1 102347Z 28006KT 28/M05 A2971 RMK A01 T02841053  RH  011%=      5-min Rain = 0
KCH1 102348Z 28007KT 28/M06 A2971 RMK A01 T02831056  RH  010%=      5-min Rain = 0
KCH1 102349Z 28006KT 28/M06 A2971 RMK A01 T02831057  RH  010%=      5-min Rain = 0
KCH1 102350Z 28006KT 28/M06 A2971 RMK A01 T02831056  RH  010%=      5-min Rain = 0
KCH1 102351Z 28005KT 28/M05 A2972 RMK A01 T02821053  RH  011%=      5-min Rain = 0
KCH1 102352Z 28005KT 28/M05 A2972 RMK A01 T02821054  RH  011%=      5-min Rain = 0
KCH1 102353Z 28005KT 28/M06 A2972 RMK A01 T02811056  RH  011%=      5-min Rain = 0
KCH1 102354Z 28006KT 28/M06 A2972 RMK A01 T02811055  RH  011%=      5-min Rain = 0
KCH1 102355Z 28006KT 28/M06 A2972 RMK A01 T02801055  RH  011%=      5-min Rain = 0
KCH1 102356Z 28005KT 28/M05 A2972 RMK A01 T02801054  RH  011%=      5-min Rain = 0
KCH1 102357Z 28006KT 28/M05 A2972 RMK A01 T02791053  RH  011%=      5-min Rain = 0
KCH1 102358Z 28006KT 28/M05 A2972 RMK A01 T02791053  RH  011%=      5-min Rain = 0
KCH1 102359Z 28005KT 28/M06 A2972 RMK A01 T02791055  RH  011%=      5-min Rain = 0
KCH1 110000Z 28006KT 28/M06 A2972 RMK A01 T02791056  RH  011%=      5-min Rain = 0
KCH1 110001Z 28005KT 28/M06 A2972 RMK A01 T02791055  RH  011%=      5-min Rain = 0
KCH1 110002Z 28005KT 28/M05 A2972 RMK A01 T02781054  RH  011%=      5-min Rain = 0
KCH1 110003Z 28005KT 28/M05 A2972 RMK A01 T02781054  RH  011%=      5-min Rain = 0
KCH1 110004Z 28005KT 28/M05 A2972 RMK A01 T02771054  RH  011%=      5-min Rain = 0
KCH1 110005Z 28005KT 28/M05 A2972 RMK A01 T02771052  RH  011%=      5-min Rain = 0
KCH1 110006Z 28004KT 28/M05 A2972 RMK A01 T02761052  RH  011%=      5-min Rain = 0
KCH1 110007Z 28005KT 28/M05 A2972 RMK A01 T02751051  RH  011%=      5-min Rain = 0
KCH1 110008Z 27005KT 28/M05 A2972 RMK A01 T02751051  RH  011%=      5-min Rain = 0
KCH1 110009Z 28005KT 27/M05 A2972 RMK A01 T02741053  RH  011%=      5-min Rain = 0
KCH1 110010Z 27005KT 27/M05 A2972 RMK A01 T02741050  RH  012%=      5-min Rain = 0
KCH1 110011Z 28005KT 27/M05 A2972 RMK A01 T02731052  RH  011%=      5-min Rain = 0
KCH1 110012Z 28005KT 27/M05 A2972 RMK A01 T02731049  RH  012%=      5-min Rain = 0
KCH1 110013Z 28005KT 27/M05 A2972 RMK A01 T02731050  RH  012%=      5-min Rain = 0
KCH1 110014Z 27005KT 27/M05 A2972 RMK A01 T02721051  RH  012%=      5-min Rain = 0
KCH1 110015Z 28005KT 27/M05 A2972 RMK A01 T02721051  RH  012%=      5-min Rain = 0
KCH1 110016Z 27005KT 27/M05 A2972 RMK A01 T02721049  RH  012%=      5-min Rain = 0
KCH1 110017Z 28005KT 27/M05 A2972 RMK A01 T02711049  RH  012%=      5-min Rain = 0
KCH1 110018Z 28005KT 27/M05 A2972 RMK A01 T02701048  RH  012%=      5-min Rain = 0
KCH1 110019Z 28006KT 27/M05 A2972 RMK A01 T02701050  RH  012%=      5-min Rain = 0
KCH1 110020Z 27005KT 27/M05 A2972 RMK A01 T02701052  RH  012%=      5-min Rain = 0
KCH1 110021Z 28005KT 27/M05 A2972 RMK A01 T02701051  RH  012%=      5-min Rain = 0
KCH1 110022Z 27005KT 27/M05 A2972 RMK A01 T02691049  RH  012%=      5-min Rain = 0
KCH1 110023Z 27005KT 27/M05 A2972 RMK A01 T02681051  RH  012%=      5-min Rain = 0
KCH1 110024Z 27005KT 27/M05 A2972 RMK A01 T02681053  RH  012%=      5-min Rain = 0
KCH1 110025Z 27005KT 27/M05 A2972 RMK A01 T02681053  RH  012%=      5-min Rain = 0
KCH1 110026Z 27006KT 27/M05 A2972 RMK A01 T02681053  RH  012%=      5-min Rain = 0
KCH1 110027Z 27005KT 27/M05 A2973 RMK A01 T02681054  RH  012%=      5-min Rain = 0
KCH1 110028Z 27005KT 27/M05 A2973 RMK A01 T02681054  RH  012%=      5-min Rain = 0
KCH1 110029Z 27005KT 27/M05 A2973 RMK A01 T02681054  RH  012%=      5-min Rain = 0
KCH1 110030Z 27005KT 27/M05 A2973 RMK A01 T02671053  RH  012%=      5-min Rain = 0
KCH1 110031Z 28005KT 27/M06 A2973 RMK A01 T02671055  RH  012%=      5-min Rain = 0
KCH1 110032Z 28005KT 27/M06 A2973 RMK A01 T02671056  RH  012%=      5-min Rain = 0
KCH1 110033Z 27005KT 27/M05 A2973 RMK A01 T02671054  RH  012%=      5-min Rain = 0
KCH1 110034Z 28005KT 27/M05 A2973 RMK A01 T02661053  RH  012%=      5-min Rain = 0
KCH1 110035Z 28005KT 27/M05 A2973 RMK A01 T02651054  RH  012%=      5-min Rain = 0
KCH1 110036Z 27005KT 27/M05 A2973 RMK A01 T02651054  RH  012%=      5-min Rain = 0
KCH1 110037Z 27005KT 27/M06 A2973 RMK A01 T02651056  RH  012%=      5-min Rain = 0
KCH1 110038Z 27005KT 26/M06 A2973 RMK A01 T02641056  RH  012%=      5-min Rain = 0
KCH1 110039Z 27005KT 27/M06 A2973 RMK A01 T02651055  RH  012%=      5-min Rain = 0
KCH1 110040Z 27005KT 26/M05 A2973 RMK A01 T02641052  RH  012%=      5-min Rain = 0
KCH1 110041Z 27004KT 26/M05 A2973 RMK A01 T02631052  RH  012%=      5-min Rain = 0
KCH1 110042Z 27004KT 26/M05 A2973 RMK A01 T02621052  RH  012%=      5-min Rain = 0
KCH1 110043Z 27003KT 26/M05 A2973 RMK A01 T02611051  RH  012%=      5-min Rain = 0
KCH1 110044Z 28003KT 26/M05 A2973 RMK A01 T02601050  RH  013%=      5-min Rain = 0
KCH1 110045Z 28003KT 26/M05 A2973 RMK A01 T02591049  RH  013%=      5-min Rain = 0
KCH1 110046Z 27003KT 26/M05 A2974 RMK A01 T02581049  RH  013%=      5-min Rain = 0
KCH1 110047Z 27003KT 26/M05 A2974 RMK A01 T02571049  RH  013%=      5-min Rain = 0
KCH1 110048Z 27003KT 26/M05 A2974 RMK A01 T02561049  RH  013%=      5-min Rain = 0
KCH1 110049Z 27003KT 26/M05 A2974 RMK A01 T02561048  RH  013%=      5-min Rain = 0
KCH1 110050Z 27003KT 26/M05 A2974 RMK A01 T02551048  RH  013%=      5-min Rain = 0
KCH1 110051Z 27003KT 25/M05 A2974 RMK A01 T02541049  RH  013%=      5-min Rain = 0
KCH1 110052Z 27004KT 25/M05 A2974 RMK A01 T02541049  RH  013%=      5-min Rain = 0
KCH1 110053Z 27004KT 25/M05 A2974 RMK A01 T02541053  RH  013%=      5-min Rain = 0
KCH1 110054Z 27004KT 25/M06 A2974 RMK A01 T02541055  RH  013%=      5-min Rain = 0
KCH1 110055Z 27003KT 25/M05 A2974 RMK A01 T02541054  RH  013%=      5-min Rain = 0
KCH1 110056Z 28002KT 25/M05 A2974 RMK A01 T02541053  RH  013%=      5-min Rain = 0
KCH1 110057Z 30002KT 25/M05 A2974 RMK A01 T02531046  RH  013%=      5-min Rain = 0
KCH1 110058Z 34002KT 25/M04 A2974 RMK A01 T02511042  RH  014%=      5-min Rain = 0
KCH1 110059Z 34004KT 25/M04 A2974 RMK A01 T02491039  RH  015%=      5-min Rain = 0
KCH1 110100Z 33005KT 25/M04 A2974 RMK A01 T02461037  RH  015%=      5-min Rain = 0
KCH1 110101Z 32004KT 24/M04 A2974 RMK A01 T02441036  RH  015%=      5-min Rain = 0
KCH1 110102Z 30004KT 24/M04 A2974 RMK A01 T02441038  RH  015%=      5-min Rain = 0
KCH1 110103Z 29004KT 25/M04 A2974 RMK A01 T02461042  RH  015%=      5-min Rain = 0
KCH1 110104Z 29004KT 25/M04 A2974 RMK A01 T02481042  RH  014%=      5-min Rain = 0
KCH1 110105Z 29004KT 25/M04 A2974 RMK A01 T02491039  RH  015%=      5-min Rain = 0
KCH1 110106Z 29003KT 25/M04 A2974 RMK A01 T02491037  RH  015%=      5-min Rain = 0
KCH1 110107Z 29004KT 25/M04 A2974 RMK A01 T02481038  RH  015%=      5-min Rain = 0
KCH1 110108Z 30003KT 25/M04 A2974 RMK A01 T02481039  RH  015%=      5-min Rain = 0
KCH1 110109Z 32003KT 25/M04 A2974 RMK A01 T02481038  RH  015%=      5-min Rain = 0
KCH1 110110Z 32004KT 25/M04 A2974 RMK A01 T02481036  RH  015%=      5-min Rain = 0
KCH1 110111Z 32004KT 25/M03 A2974 RMK A01 T02481034  RH  015%=      5-min Rain = 0
KCH1 110112Z 32004KT 25/M04 A2974 RMK A01 T02471035  RH  015%=      5-min Rain = 0
KCH1 110113Z 31004KT 25/M04 A2974 RMK A01 T02461038  RH  015%=      5-min Rain = 0
KCH1 110114Z 31004KT 25/M04 A2974 RMK A01 T02461042  RH  015%=      5-min Rain = 0
KCH1 110115Z 30004KT 25/M04 A2974 RMK A01 T02471044  RH  014%=      5-min Rain = 0
KCH1 110116Z 30004KT 25/M05 A2974 RMK A01 T02481046  RH  014%=      5-min Rain = 0
KCH1 110117Z 29004KT 25/M04 A2974 RMK A01 T02491044  RH  014%=      5-min Rain = 0
KCH1 110118Z 28004KT 25/M04 A2974 RMK A01 T02491042  RH  014%=      5-min Rain = 0
KCH1 110119Z 28004KT 25/M04 A2974 RMK A01 T02491044  RH  014%=      5-min Rain = 0
KCH1 110120Z 28004KT 25/M04 A2974 RMK A01 T02481044  RH  014%=      5-min Rain = 0
KCH1 110121Z 28004KT 25/M05 A2974 RMK A01 T02471045  RH  014%=      5-min Rain = 0
KCH1 110122Z 28004KT 25/M04 A2974 RMK A01 T02471039  RH  015%=      5-min Rain = 0
KCH1 110123Z 28003KT 25/M04 A2974 RMK A01 T02451037  RH  015%=      5-min Rain = 0
KCH1 110124Z 29003KT 24/M04 A2974 RMK A01 T02441040  RH  015%=      5-min Rain = 0
KCH1 110125Z 29002KT 24/M04 A2974 RMK A01 T02441043  RH  015%=      5-min Rain = 0
KCH1 110126Z 29002KT 24/M04 A2974 RMK A01 T02431042  RH  015%=      5-min Rain = 0
KCH1 110127Z 29003KT 24/M04 A2974 RMK A01 T02431038  RH  015%=      5-min Rain = 0
KCH1 110128Z 28003KT 24/M04 A2974 RMK A01 T02421035  RH  016%=      5-min Rain = 0
KCH1 110129Z 27003KT 24/M04 A2974 RMK A01 T02421035  RH  016%=      5-min Rain = 0
KCH1 110130Z 27003KT 24/M03 A2975 RMK A01 T02411033  RH  016%=      5-min Rain = 0
KCH1 110131Z 27003KT 24/M03 A2975 RMK A01 T02401033  RH  016%=      5-min Rain = 0
KCH1 110132Z 27003KT 24/M03 A2975 RMK A01 T02391032  RH  016%=      5-min Rain = 0
KCH1 110133Z 27003KT 24/M03 A2975 RMK A01 T02391031  RH  016%=      5-min Rain = 0
KCH1 110134Z 27003KT 24/M03 A2975 RMK A01 T02381032  RH  016%=      5-min Rain = 0
KCH1 110135Z 27003KT 24/M03 A2975 RMK A01 T02371031  RH  017%=      5-min Rain = 0
KCH1 110136Z 27003KT 24/M03 A2975 RMK A01 T02361031  RH  017%=      5-min Rain = 0
KCH1 110137Z 27003KT 24/M03 A2975 RMK A01 T02361033  RH  017%=      5-min Rain = 0
KCH1 110138Z 27003KT 24/M03 A2975 RMK A01 T02351034  RH  016%=      5-min Rain = 0
KCH1 110139Z 28003KT 24/M04 A2975 RMK A01 T02351035  RH  016%=      5-min Rain = 0
KCH1 110140Z 28003KT 24/M04 A2975 RMK A01 T02351035  RH  016%=      5-min Rain = 0
KCH1 110141Z 28003KT 24/M04 A2975 RMK A01 T02351038  RH  016%=      5-min Rain = 0
KCH1 110142Z 27003KT 24/M04 A2975 RMK A01 T02351040  RH  016%=      5-min Rain = 0
KCH1 110143Z 27003KT 24/M04 A2975 RMK A01 T02361040  RH  016%=      5-min Rain = 0
KCH1 110144Z 27003KT 24/M04 A2975 RMK A01 T02361040  RH  016%=      5-min Rain = 0
KCH1 110145Z 27003KT 24/M04 A2975 RMK A01 T02361039  RH  016%=      5-min Rain = 0
KCH1 110146Z 27003KT 24/M04 A2975 RMK A01 T02361040  RH  016%=      5-min Rain = 0
KCH1 110147Z 27003KT 24/M04 A2975 RMK A01 T02361040  RH  016%=      5-min Rain = 0
KCH1 110148Z 27003KT 24/M04 A2975 RMK A01 T02361036  RH  016%=      5-min Rain = 0
KCH1 110149Z 28003KT 24/M04 A2975 RMK A01 T02351036  RH  016%=      5-min Rain = 0
KCH1 110150Z 28003KT 24/M04 A2975 RMK A01 T02351037  RH  016%=      5-min Rain = 0
KCH1 110151Z 27003KT 24/M04 A2975 RMK A01 T02351039  RH  016%=      5-min Rain = 0
KCH1 110152Z 28002KT 24/M04 A2975 RMK A01 T02351039  RH  016%=      5-min Rain = 0
KCH1 110153Z 28002KT 24/M04 A2975 RMK A01 T02351040  RH  016%=      5-min Rain = 0
KCH1 110154Z 30002KT 24/M04 A2975 RMK A01 T02351038  RH  016%=      5-min Rain = 0
KCH1 110155Z 29002KT 23/M03 A2975 RMK A01 T02331025  RH  018%=      5-min Rain = 0
KCH1 110156Z 30002KT 23/M02 A2975 RMK A01 T02271018  RH  019%=      5-min Rain = 0
KCH1 110157Z 31001KT 22/M02 A2975 RMK A01 T02201021  RH  020%=      5-min Rain = 0
KCH1 110158Z 32001KT 22/M03 A2975 RMK A01 T02151027  RH  020%=      5-min Rain = 0
KCH1 110159Z 34002KT 21/M02 A2975 RMK A01 T02121017  RH  021%=      5-min Rain = 0
KCH1 110200Z 35002KT 21/M02 A2975 RMK A01 T02071022  RH  021%=      5-min Rain = 0
KCH1 110201Z 34002KT 21/M03 A2975 RMK A01 T02061027  RH  021%=      5-min Rain = 0
KCH1 110202Z 34003KT 21/M04 A2975 RMK A01 T02081036  RH  019%=      5-min Rain = 0
KCH1 110203Z 34003KT 21/M04 A2975 RMK A01 T02111038  RH  018%=      5-min Rain = 0
KCH1 110204Z 34003KT 21/M04 A2975 RMK A01 T02131038  RH  018%=      5-min Rain = 0
KCH1 110205Z 34003KT 21/M03 A2975 RMK A01 T02141031  RH  019%=      5-min Rain = 0
KCH1 110206Z 35003KT 21/M03 A2975 RMK A01 T02121027  RH  020%=      5-min Rain = 0
KCH1 110207Z 35003KT 21/M03 A2975 RMK A01 T02101031  RH  020%=      5-min Rain = 0
KCH1 110208Z 34003KT 21/M03 A2975 RMK A01 T02101034  RH  019%=      5-min Rain = 0
KCH1 110209Z 34003KT 21/M04 A2975 RMK A01 T02101036  RH  019%=      5-min Rain = 0
KCH1 110210Z 33003KT 21/M04 A2975 RMK A01 T02111037  RH  019%=      5-min Rain = 0
KCH1 110211Z 33004KT 21/M04 A2975 RMK A01 T02131038  RH  018%=      5-min Rain = 0
KCH1 110212Z 33004KT 22/M04 A2975 RMK A01 T02161038  RH  018%=      5-min Rain = 0
KCH1 110213Z 33004KT 22/M04 A2975 RMK A01 T02181039  RH  018%=      5-min Rain = 0
KCH1 110214Z 33004KT 22/M04 A2975 RMK A01 T02201039  RH  017%=      5-min Rain = 0
KCH1 110215Z 32004KT 22/M04 A2976 RMK A01 T02201040  RH  017%=      5-min Rain = 0
KCH1 110216Z 32003KT 22/M04 A2976 RMK A01 T02211038  RH  017%=      5-min Rain = 0
KCH1 110217Z 32004KT 22/M04 A2976 RMK A01 T02211038  RH  017%=      5-min Rain = 0
KCH1 110218Z 32003KT 22/M04 A2976 RMK A01 T02211039  RH  017%=      5-min Rain = 0
KCH1 110219Z 31003KT 22/M04 A2976 RMK A01 T02201038  RH  017%=      5-min Rain = 0
KCH1 110220Z 31003KT 22/M04 A2976 RMK A01 T02191038  RH  018%=      5-min Rain = 0
KCH1 110221Z 31003KT 22/M04 A2976 RMK A01 T02181037  RH  018%=      5-min Rain = 0
KCH1 110222Z 31003KT 22/M04 A2976 RMK A01 T02171038  RH  018%=      5-min Rain = 0
KCH1 110223Z 31003KT 22/M04 A2976 RMK A01 T02161038  RH  018%=      5-min Rain = 0
KCH1 110224Z 31003KT 22/M04 A2976 RMK A01 T02161037  RH  018%=      5-min Rain = 0
KCH1 110225Z 31003KT 22/M04 A2976 RMK A01 T02161037  RH  018%=      5-min Rain = 0
KCH1 110226Z 32004KT 22/M04 A2976 RMK A01 T02161038  RH  018%=      5-min Rain = 0
KCH1 110227Z 33004KT 22/M04 A2976 RMK A01 T02161036  RH  018%=      5-min Rain = 0
KCH1 110228Z 33005KT 22/M02 A2976 RMK A01 T02161022  RH  020%=      5-min Rain = 0
KCH1 110229Z 33004KT 21/M02 A2977 RMK A01 T02131019  RH  021%=      5-min Rain = 0
KCH1 110230Z 33004KT 21/M03 A2977 RMK A01 T02111034  RH  019%=      5-min Rain = 0
KCH1 110231Z 33004KT 21/M04 A2977 RMK A01 T02111038  RH  018%=      5-min Rain = 0
KCH1 110232Z 33005KT 21/M04 A2977 RMK A01 T02111043  RH  018%=      5-min Rain = 0
KCH1 110233Z 33005KT 21/M05 A2977 RMK A01 T02111046  RH  017%=      5-min Rain = 0
KCH1 110234Z 33004KT 21/M05 A2977 RMK A01 T02131048  RH  017%=      5-min Rain = 0
KCH1 110235Z 33005KT 22/M05 A2977 RMK A01 T02151049  RH  017%=      5-min Rain = 0
KCH1 110236Z 32005KT 22/M05 A2977 RMK A01 T02181050  RH  016%=      5-min Rain = 0
KCH1 110237Z 31005KT 22/M05 A2977 RMK A01 T02191049  RH  016%=      5-min Rain = 0
KCH1 110238Z 31005KT 22/M05 A2977 RMK A01 T02201046  RH  016%=      5-min Rain = 0
KCH1 110239Z 31005KT 22/M05 A2977 RMK A01 T02211046  RH  016%=      5-min Rain = 0
KCH1 110240Z 31005KT 22/M04 A2977 RMK A01 T02201043  RH  017%=      5-min Rain = 0
KCH1 110241Z 30005KT 22/M04 A2977 RMK A01 T02201041  RH  017%=      5-min Rain = 0
KCH1 110242Z 30004KT 22/M04 A2977 RMK A01 T02191038  RH  018%=      5-min Rain = 0
KCH1 110243Z 29004KT 22/M03 A2977 RMK A01 T02171033  RH  019%=      5-min Rain = 0
KCH1 110244Z 29004KT 22/M03 A2977 RMK A01 T02151029  RH  019%=      5-min Rain = 0
KCH1 110245Z 29004KT 21/M03 A2977 RMK A01 T02131026  RH  020%=      5-min Rain = 0
KCH1 110246Z 29004KT 21/M02 A2977 RMK A01 T02121021  RH  021%=      5-min Rain = 0
KCH1 110247Z 28005KT 21/M02 A2977 RMK A01 T02101015  RH  022%=      5-min Rain = 0
KCH1 110248Z 28005KT 21/M01 A2977 RMK A01 T02091010  RH  023%=      5-min Rain = 0
KCH1 110249Z 28004KT 21/M01 A2977 RMK A01 T02071008  RH  024%=      5-min Rain = 0
KCH1 110250Z 28005KT 21/M01 A2977 RMK A01 T02061005  RH  024%=      5-min Rain = 0
KCH1 110251Z 28005KT 21/M00 A2977 RMK A01 T02051003  RH  025%=      5-min Rain = 0
KCH1 110252Z 29005KT 20/M00 A2977 RMK A01 T02041002  RH  025%=      5-min Rain = 0
KCH1 110253Z 29005KT 20/00 A2977 RMK A01 T02030002  RH  026%=      5-min Rain = 0
KCH1 110254Z 29005KT 20/00 A2977 RMK A01 T02020002  RH  026%=      5-min Rain = 0
KCH1 110255Z 30004KT 20/00 A2977 RMK A01 T02020004  RH  027%=      5-min Rain = 0
KCH1 110256Z 30004KT 20/01 A2977 RMK A01 T02010008  RH  027%=      5-min Rain = 0
KCH1 110257Z 29004KT 20/01 A2977 RMK A01 T02000009  RH  028%=      5-min Rain = 0
KCH1 110258Z 30005KT 20/01 A2977 RMK A01 T02000008  RH  028%=      5-min Rain = 0
KCH1 110259Z 30005KT 20/01 A2977 RMK A01 T02000006  RH  027%=      5-min Rain = 0
KCH1 110300Z 30005KT 20/00 A2977 RMK A01 T02000004  RH  027%=      5-min Rain = 0
KCH1 110301Z 31005KT 20/00 A2977 RMK A01 T02010001  RH  026%=      5-min Rain = 0
KCH1 110302Z 31005KT 20/M00 A2977 RMK A01 T02011003  RH  025%=      5-min Rain = 0
KCH1 110303Z 31006KT 20/M00 A2977 RMK A01 T02021002  RH  025%=      5-min Rain = 0
KCH1 110304Z 30006KT 20/M00 A2977 RMK A01 T02031001  RH  025%=      5-min Rain = 0
KCH1 110305Z 30006KT 20/00 A2977 RMK A01 T02030002  RH  026%=      5-min Rain = 0
KCH1 110306Z 30006KT 20/00 A2977 RMK A01 T02010004  RH  027%=      5-min Rain = 0
KCH1 110307Z 30006KT 20/00 A2978 RMK A01 T02000003  RH  027%=      5-min Rain = 0
KCH1 110308Z 29006KT 20/01 A2978 RMK A01 T01990005  RH  027%=      5-min Rain = 0
KCH1 110309Z 29005KT 20/01 A2978 RMK A01 T01980008  RH  028%=      5-min Rain = 0
KCH1 110310Z 29005KT 20/01 A2978 RMK A01 T01960012  RH  029%=      5-min Rain = 0
KCH1 110311Z 29005KT 20/01 A2978 RMK A01 T01950013  RH  030%=      5-min Rain = 0
KCH1 110312Z 29005KT 19/02 A2978 RMK A01 T01940015  RH  030%=      5-min Rain = 0
KCH1 110313Z 29005KT 19/02 A2978 RMK A01 T01930016  RH  031%=      5-min Rain = 0
KCH1 110314Z 28004KT 19/02 A2978 RMK A01 T01920017  RH  031%=      5-min Rain = 0
KCH1 110315Z 27004KT 19/02 A2978 RMK A01 T01910018  RH  031%=      5-min Rain = 0
KCH1 110316Z 28005KT 19/02 A2978 RMK A01 T01900018  RH  032%=      5-min Rain = 0
KCH1 110317Z 28005KT 19/02 A2978 RMK A01 T01890019  RH  032%=      5-min Rain = 0
KCH1 110318Z 28005KT 19/02 A2978 RMK A01 T01880021  RH  033%=      5-min Rain = 0
KCH1 110319Z 28005KT 19/02 A2978 RMK A01 T01880021  RH  033%=      5-min Rain = 0
KCH1 110320Z 29005KT 19/02 A2978 RMK A01 T01880020  RH  033%=      5-min Rain = 0
KCH1 110321Z 30005KT 19/02 A2978 RMK A01 T01880018  RH  032%=      5-min Rain = 0
KCH1 110322Z 30006KT 19/02 A2978 RMK A01 T01880016  RH  032%=      5-min Rain = 0
KCH1 110323Z 31007KT 19/01 A2978 RMK A01 T01890009  RH  030%=      5-min Rain = 0
KCH1 110324Z 31007KT 19/00 A2978 RMK A01 T01900001  RH  028%=      5-min Rain = 0
KCH1 110325Z 31006KT 19/00 A2978 RMK A01 T01920002  RH  028%=      5-min Rain = 0
KCH1 110326Z 31006KT 19/M00 A2978 RMK A01 T01941001  RH  027%=      5-min Rain = 0
KCH1 110327Z 30005KT 19/00 A2978 RMK A01 T019400-0  RH  027%=      5-min Rain = 0
KCH1 110328Z 31005KT 20/M01 A2978 RMK A01 T01951005  RH  026%=      5-min Rain = 0
KCH1 110329Z 31006KT 20/M00 A2978 RMK A01 T01961003  RH  026%=      5-min Rain = 0
KCH1 110330Z 31007KT 20/M00 A2978 RMK A01 T01961001  RH  027%=      5-min Rain = 0
KCH1 110331Z 32006KT 20/M01 A2978 RMK A01 T01951007  RH  026%=      5-min Rain = 0
KCH1 110332Z 32006KT 20/M01 A2978 RMK A01 T01951013  RH  024%=      5-min Rain = 0
KCH1 110333Z 31006KT 20/M02 A2978 RMK A01 T01951017  RH  024%=      5-min Rain = 0
KCH1 110334Z 31006KT 20/M02 A2978 RMK A01 T01961018  RH  024%=      5-min Rain = 0
KCH1 110335Z 31006KT 20/M02 A2978 RMK A01 T01971022  RH  023%=      5-min Rain = 0
KCH1 110336Z 31006KT 20/M02 A2978 RMK A01 T01971021  RH  023%=      5-min Rain = 0
KCH1 110337Z 31006KT 20/M02 A2978 RMK A01 T01971021  RH  023%=      5-min Rain = 0
KCH1 110338Z 31005KT 20/M02 A2978 RMK A01 T01981020  RH  023%=      5-min Rain = 0
KCH1 110339Z 31006KT 20/M02 A2978 RMK A01 T01971020  RH  023%=      5-min Rain = 0
KCH1 110340Z 30005KT 20/M02 A2978 RMK A01 T01971020  RH  023%=      5-min Rain = 0
KCH1 110341Z 31005KT 20/M02 A2978 RMK A01 T01971016  RH  024%=      5-min Rain = 0
KCH1 110342Z 31005KT 20/M02 A2978 RMK A01 T01961015  RH  024%=      5-min Rain = 0
KCH1 110343Z 31006KT 20/M01 A2978 RMK A01 T01951011  RH  025%=      5-min Rain = 0
KCH1 110344Z 31006KT 19/M01 A2978 RMK A01 T01941008  RH  026%=      5-min Rain = 0
KCH1 110345Z 32006KT 19/M01 A2978 RMK A01 T01931008  RH  026%=      5-min Rain = 0
KCH1 110346Z 32006KT 19/M01 A2978 RMK A01 T01921008  RH  026%=      5-min Rain = 0
KCH1 110347Z 32006KT 19/M01 A2978 RMK A01 T01921011  RH  025%=      5-min Rain = 0
KCH1 110348Z 32006KT 19/M01 A2978 RMK A01 T01921013  RH  025%=      5-min Rain = 0
KCH1 110349Z 32005KT 19/M01 A2978 RMK A01 T01921013  RH  025%=      5-min Rain = 0
KCH1 110350Z 32006KT 19/M02 A2978 RMK A01 T01921017  RH  024%=      5-min Rain = 0
KCH1 110351Z 32006KT 19/M02 A2978 RMK A01 T01931018  RH  024%=      5-min Rain = 0
KCH1 110352Z 33005KT 19/M02 A2979 RMK A01 T01931020  RH  024%=      5-min Rain = 0
KCH1 110353Z 32005KT 19/M02 A2979 RMK A01 T01931022  RH  023%=      5-min Rain = 0
KCH1 110354Z 32005KT 19/M02 A2979 RMK A01 T01941022  RH  023%=      5-min Rain = 0
KCH1 110355Z 33005KT 19/M02 A2979 RMK A01 T01941024  RH  023%=      5-min Rain = 0
KCH1 110356Z 32005KT 19/M03 A2979 RMK A01 T01941025  RH  023%=      5-min Rain = 0
KCH1 110357Z 31005KT 20/M02 A2979 RMK A01 T01951023  RH  023%=      5-min Rain = 0
KCH1 110358Z 32005KT 20/M03 A2979 RMK A01 T01951025  RH  022%=      5-min Rain = 0
KCH1 110359Z 32005KT 20/M03 A2979 RMK A01 T01951026  RH  022%=      5-min Rain = 0
KCH1 110400Z 32005KT 20/M03 A2979 RMK A01 T01951026  RH  022%=      5-min Rain = 0
KCH1 110401Z 32005KT 20/M03 A2979 RMK A01 T01951026  RH  022%=      5-min Rain = 0
KCH1 110402Z 33005KT 20/M03 A2979 RMK A01 T01951026  RH  022%=      5-min Rain = 0
KCH1 110403Z 33005KT 19/M03 A2979 RMK A01 T01941027  RH  022%=      5-min Rain = 0
KCH1 110404Z 34005KT 19/M03 A2979 RMK A01 T01941028  RH  022%=      5-min Rain = 0
KCH1 110405Z 34005KT 19/M03 A2979 RMK A01 T01931027  RH  022%=      5-min Rain = 0
KCH1 110406Z 34005KT 19/M03 A2979 RMK A01 T01921026  RH  023%=      5-min Rain = 0
KCH1 110407Z 33005KT 19/M03 A2979 RMK A01 T01911025  RH  023%=      5-min Rain = 0
KCH1 110408Z 33005KT 19/M03 A2979 RMK A01 T01901026  RH  023%=      5-min Rain = 0
KCH1 110409Z 33005KT 19/M03 A2979 RMK A01 T01901027  RH  023%=      5-min Rain = 0
KCH1 110410Z 33005KT 19/M03 A2979 RMK A01 T01901028  RH  023%=      5-min Rain = 0
KCH1 110411Z 33004KT 19/M03 A2979 RMK A01 T01901029  RH  022%=      5-min Rain = 0
KCH1 110412Z 33004KT 19/M03 A2979 RMK A01 T01901029  RH  022%=      5-min Rain = 0
KCH1 110413Z 32004KT 19/M03 A2979 RMK A01 T01901032  RH  022%=      5-min Rain = 0
KCH1 110414Z 33004KT 19/M03 A2979 RMK A01 T01911032  RH  022%=      5-min Rain = 0
KCH1 110415Z 33005KT 19/M03 A2979 RMK A01 T01921034  RH  022%=      5-min Rain = 0
KCH1 110416Z 33005KT 19/M03 A2979 RMK A01 T01931034  RH  021%=      5-min Rain = 0
KCH1 110417Z 33005KT 19/M03 A2979 RMK A01 T01931034  RH  021%=      5-min Rain = 0
KCH1 110418Z 33005KT 19/M04 A2979 RMK A01 T01931035  RH  021%=      5-min Rain = 0
KCH1 110419Z 33005KT 19/M03 A2979 RMK A01 T01931034  RH  021%=      5-min Rain = 0
KCH1 110420Z 32005KT 19/M04 A2979 RMK A01 T01931035  RH  021%=      5-min Rain = 0
KCH1 110421Z 32004KT 19/M04 A2979 RMK A01 T01931035  RH  021%=      5-min Rain = 0
KCH1 110422Z 32005KT 19/M03 A2979 RMK A01 T01931034  RH  021%=      5-min Rain = 0
KCH1 110423Z 32004KT 19/M03 A2979 RMK A01 T01931033  RH  021%=      5-min Rain = 0
KCH1 110424Z 32005KT 19/M03 A2979 RMK A01 T01931033  RH  021%=      5-min Rain = 0
KCH1 110425Z 32004KT 19/M03 A2979 RMK A01 T01921032  RH  022%=      5-min Rain = 0
KCH1 110426Z 32005KT 19/M03 A2979 RMK A01 T01911031  RH  022%=      5-min Rain = 0
KCH1 110427Z 32005KT 19/M03 A2979 RMK A01 T01901031  RH  022%=      5-min Rain = 0
KCH1 110428Z 32005KT 19/M03 A2979 RMK A01 T01891032  RH  022%=      5-min Rain = 0
KCH1 110429Z 32005KT 19/M03 A2979 RMK A01 T01891031  RH  022%=      5-min Rain = 0
KCH1 110430Z 32005KT 19/M03 A2979 RMK A01 T01891031  RH  022%=      5-min Rain = 0
KCH1 110431Z 33005KT 19/M03 A2979 RMK A01 T01881031  RH  022%=      5-min Rain = 0
KCH1 110432Z 33005KT 19/M03 A2979 RMK A01 T01881031  RH  022%=      5-min Rain = 0
KCH1 110433Z 33005KT 19/M03 A2979 RMK A01 T01881032  RH  022%=      5-min Rain = 0
KCH1 110434Z 34005KT 19/M03 A2979 RMK A01 T01881032  RH  022%=      5-min Rain = 0
KCH1 110435Z 33006KT 19/M03 A2979 RMK A01 T01881033  RH  022%=      5-min Rain = 0
KCH1 110436Z 33005KT 19/M03 A2979 RMK A01 T01881032  RH  022%=      5-min Rain = 0
KCH1 110437Z 33004KT 19/M03 A2979 RMK A01 T01881032  RH  022%=      5-min Rain = 0
KCH1 110438Z 33005KT 19/M03 A2979 RMK A01 T01881032  RH  022%=      5-min Rain = 0
KCH1 110439Z 33004KT 19/M03 A2979 RMK A01 T01881032  RH  022%=      5-min Rain = 0
KCH1 110440Z 33005KT 19/M03 A2979 RMK A01 T01871032  RH  022%=      5-min Rain = 0
KCH1 110441Z 33005KT 19/M03 A2979 RMK A01 T01861032  RH  023%=      5-min Rain = 0
KCH1 110442Z 33005KT 19/M03 A2979 RMK A01 T01861032  RH  023%=      5-min Rain = 0
KCH1 110443Z 33004KT 19/M03 A2979 RMK A01 T01851033  RH  023%=      5-min Rain = 0
KCH1 110444Z 33005KT 19/M03 A2979 RMK A01 T01861034  RH  022%=      5-min Rain = 0
KCH1 110445Z 33005KT 19/M03 A2979 RMK A01 T01861034  RH  022%=      5-min Rain = 0
KCH1 110446Z 33005KT 19/M03 A2979 RMK A01 T01871033  RH  022%=      5-min Rain = 0
KCH1 110447Z 33005KT 19/M03 A2979 RMK A01 T01871033  RH  022%=      5-min Rain = 0
KCH1 110448Z 33005KT 19/M03 A2979 RMK A01 T01861034  RH  022%=      5-min Rain = 0
KCH1 110449Z 32005KT 19/M03 A2979 RMK A01 T01861034  RH  022%=      5-min Rain = 0
KCH1 110450Z 32005KT 19/M03 A2979 RMK A01 T01861034  RH  022%=      5-min Rain = 0
KCH1 110451Z 32005KT 19/M03 A2979 RMK A01 T01861034  RH  022%=      5-min Rain = 0
KCH1 110452Z 33005KT 19/M03 A2979 RMK A01 T01861034  RH  022%=      5-min Rain = 0
KCH1 110453Z 33005KT 19/M03 A2979 RMK A01 T01861034  RH  022%=      5-min Rain = 0
KCH1 110454Z 32005KT 19/M04 A2979 RMK A01 T01861035  RH  022%=      5-min Rain = 0
KCH1 110455Z 32005KT 19/M04 A2979 RMK A01 T01861035  RH  022%=      5-min Rain = 0
KCH1 110456Z 32005KT 19/M04 A2979 RMK A01 T01861035  RH  022%=      5-min Rain = 0
KCH1 110457Z 32005KT 19/M04 A2979 RMK A01 T01861035  RH  022%=      5-min Rain = 0
KCH1 110458Z 32005KT 19/M03 A2979 RMK A01 T01851034  RH  022%=      5-min Rain = 0
KCH1 110459Z 33005KT 19/M04 A2979 RMK A01 T01851035  RH  022%=      5-min Rain = 0
KCH1 110500Z 33004KT 19/M04 A2979 RMK A01 T01851035  RH  022%=      5-min Rain = 0
KCH1 110501Z 33004KT 18/M04 A2979 RMK A01 T01841035  RH  022%=      5-min Rain = 0
KCH1 110502Z 33004KT 18/M04 A2979 RMK A01 T01841035  RH  022%=      5-min Rain = 0
KCH1 110503Z 33004KT 18/M04 A2979 RMK A01 T01841035  RH  022%=      5-min Rain = 0
KCH1 110504Z 33005KT 18/M04 A2979 RMK A01 T01841035  RH  022%=      5-min Rain = 0
KCH1 110505Z 33005KT 18/M04 A2979 RMK A01 T01831036  RH  022%=      5-min Rain = 0
KCH1 110506Z 33005KT 18/M04 A298 RMK A01 T01831035  RH  022%=      5-min Rain = 0
KCH1 110507Z 33005KT 18/M04 A298 RMK A01 T01831035  RH  023%=      5-min Rain = 0
KCH1 110508Z 32005KT 18/M03 A298 RMK A01 T01821034  RH  023%=      5-min Rain = 0
KCH1 110509Z 33005KT 18/M03 A298 RMK A01 T01811033  RH  023%=      5-min Rain = 0
KCH1 110510Z 32005KT 18/M03 A298 RMK A01 T01801033  RH  023%=      5-min Rain = 0
KCH1 110511Z 32005KT 18/M03 A298 RMK A01 T01801032  RH  023%=      5-min Rain = 0
KCH1 110512Z 32005KT 18/M03 A298 RMK A01 T01791033  RH  023%=      5-min Rain = 0
KCH1 110513Z 33005KT 18/M03 A298 RMK A01 T01781033  RH  023%=      5-min Rain = 0
KCH1 110514Z 33005KT 18/M03 A298 RMK A01 T01791033  RH  023%=      5-min Rain = 0
KCH1 110515Z 33005KT 18/M03 A298 RMK A01 T01781033  RH  024%=      5-min Rain = 0
KCH1 110516Z 32005KT 18/M03 A298 RMK A01 T01771032  RH  024%=      5-min Rain = 0
KCH1 110517Z 32006KT 18/M03 A298 RMK A01 T01771033  RH  024%=      5-min Rain = 0
KCH1 110518Z 33006KT 18/M03 A298 RMK A01 T01771033  RH  024%=      5-min Rain = 0
KCH1 110519Z 33006KT 18/M03 A298 RMK A01 T01761032  RH  024%=      5-min Rain = 0
KCH1 110520Z 33006KT 18/M03 A298 RMK A01 T01761032  RH  024%=      5-min Rain = 0
KCH1 110521Z 33006KT 18/M03 A298 RMK A01 T01751032  RH  024%=      5-min Rain = 0
KCH1 110522Z 33006KT 18/M03 A298 RMK A01 T01751032  RH  024%=      5-min Rain = 0
KCH1 110523Z 33006KT 18/M03 A298 RMK A01 T01751032  RH  024%=      5-min Rain = 0
KCH1 110524Z 33005KT 18/M03 A298 RMK A01 T01751033  RH  024%=      5-min Rain = 0
KCH1 110525Z 33005KT 18/M03 A298 RMK A01 T01761033  RH  024%=      5-min Rain = 0
KCH1 110526Z 33005KT 18/M03 A298 RMK A01 T01761034  RH  024%=      5-min Rain = 0
KCH1 110527Z 33005KT 18/M03 A298 RMK A01 T01761034  RH  024%=      5-min Rain = 0
KCH1 110528Z 33005KT 18/M03 A298 RMK A01 T01761034  RH  024%=      5-min Rain = 0
KCH1 110529Z 33005KT 18/M04 A298 RMK A01 T01761035  RH  024%=      5-min Rain = 0
KCH1 110530Z 33006KT 18/M04 A298 RMK A01 T01761035  RH  023%=      5-min Rain = 0
KCH1 110531Z 33006KT 18/M04 A298 RMK A01 T01771035  RH  023%=      5-min Rain = 0
KCH1 110532Z 34006KT 18/M03 A298 RMK A01 T01771034  RH  024%=      5-min Rain = 0
KCH1 110533Z 34005KT 18/M03 A298 RMK A01 T01771034  RH  024%=      5-min Rain = 0
KCH1 110534Z 34005KT 18/M03 A298 RMK A01 T01771034  RH  024%=      5-min Rain = 0
KCH1 110535Z 34005KT 18/M04 A298 RMK A01 T01761036  RH  023%=      5-min Rain = 0
KCH1 110536Z 34004KT 18/M04 A298 RMK A01 T01761035  RH  023%=      5-min Rain = 0
KCH1 110537Z 33005KT 18/M04 A298 RMK A01 T01761036  RH  023%=      5-min Rain = 0
KCH1 110538Z 32005KT 18/M04 A298 RMK A01 T01761036  RH  023%=      5-min Rain = 0
KCH1 110539Z 31005KT 18/M04 A298 RMK A01 T01771036  RH  023%=      5-min Rain = 0
KCH1 110540Z 31005KT 18/M04 A298 RMK A01 T01781037  RH  023%=      5-min Rain = 0
KCH1 110541Z 31004KT 18/M04 A298 RMK A01 T01791036  RH  023%=      5-min Rain = 0
KCH1 110542Z 31006KT 18/M04 A298 RMK A01 T01791035  RH  023%=      5-min Rain = 0
KCH1 110543Z 31005KT 18/M03 A298 RMK A01 T01791034  RH  023%=      5-min Rain = 0
KCH1 110544Z 31005KT 18/M03 A298 RMK A01 T01781034  RH  023%=      5-min Rain = 0
KCH1 110545Z 31005KT 18/M03 A298 RMK A01 T01781032  RH  024%=      5-min Rain = 0
KCH1 110546Z 32005KT 18/M03 A298 RMK A01 T01771032  RH  024%=      5-min Rain = 0
KCH1 110547Z 33005KT 18/M03 A298 RMK A01 T01771032  RH  024%=      5-min Rain = 0
KCH1 110548Z 32005KT 18/M03 A298 RMK A01 T01761032  RH  024%=      5-min Rain = 0
KCH1 110549Z 33005KT 18/M03 A298 RMK A01 T01761032  RH  024%=      5-min Rain = 0
KCH1 110550Z 32004KT 18/M03 A298 RMK A01 T01761033  RH  024%=      5-min Rain = 0
KCH1 110551Z 32004KT 18/M03 A298 RMK A01 T01761032  RH  024%=      5-min Rain = 0
KCH1 110552Z 32004KT 18/M03 A298 RMK A01 T01761033  RH  024%=      5-min Rain = 0
KCH1 110553Z 32004KT 18/M04 A298 RMK A01 T01761035  RH  024%=      5-min Rain = 0
KCH1 110554Z 33004KT 18/M03 A298 RMK A01 T01771034  RH  024%=      5-min Rain = 0
KCH1 110555Z 33004KT 18/M04 A298 RMK A01 T01761035  RH  023%=      5-min Rain = 0
KCH1 110556Z 34004KT 18/M03 A298 RMK A01 T01761034  RH  024%=      5-min Rain = 0
KCH1 110557Z 33004KT 18/M03 A298 RMK A01 T01761034  RH  024%=      5-min Rain = 0
KCH1 110558Z 33004KT 18/M04 A298 RMK A01 T01761035  RH  023%=      5-min Rain = 0
KCH1 110559Z 34005KT 18/M04 A298 RMK A01 T01761035  RH  023%=      5-min Rain = 0

Page generated in 0.1315 seconds.